W95114 / G-WUKN 7700 Squawk Report (24th of May, 2022)

Time Lat Lon Altitude Heading Speed Vertical Rate
2022-05-24 23:00:34 GMT 50.883167 7.116051 0 306 0 0
2022-05-24 23:00:31 GMT 50.883167 7.116060 0 306 3 0
2022-05-24 23:00:20 GMT 50.883087 7.116246 0 306 4 0
2022-05-24 23:00:11 GMT 50.882996 7.116431 0 306 4 0
2022-05-24 23:00:01 GMT 50.882858 7.116635 0 286 6 0
2022-05-24 22:59:51 GMT 50.882755 7.117006 0 247 7 0
2022-05-24 22:59:37 GMT 50.882957 7.117748 0 258 10 0
2022-05-24 22:59:28 GMT 50.883003 7.118320 0 303 9 0
2022-05-24 22:59:20 GMT 50.882767 7.118862 0 306 13 0
2022-05-24 22:59:02 GMT 50.882130 7.120247 0 306 12 0
2022-05-24 22:58:51 GMT 50.881794 7.120996 0 306 13 0
2022-05-24 22:58:42 GMT 50.881542 7.121516 0 306 11 0
2022-05-24 22:58:30 GMT 50.881233 7.122211 0 306 11 0
2022-05-24 22:58:23 GMT 50.881039 7.122707 0 281 11 0
2022-05-24 22:58:15 GMT 50.880966 7.123260 0 303 9 0
2022-05-24 22:58:07 GMT 50.880718 7.123799 0 323 12 0
2022-05-24 22:57:44 GMT 50.879757 7.125053 0 317 14 0
2022-05-24 22:57:35 GMT 50.879414 7.125580 0 317 11 0
2022-05-24 22:57:27 GMT 50.879128 7.125970 0 343 10 0
2022-05-24 22:57:16 GMT 50.878658 7.126026 0 19 15 0
2022-05-24 22:57:03 GMT 50.877789 7.125568 0 19 16 0
2022-05-24 22:56:56 GMT 50.877342 7.125339 0 19 16 0
2022-05-24 22:56:45 GMT 50.876633 7.124986 0 16 15 0
2022-05-24 22:55:21 GMT 50.870712 7.124596 0 317 22 0
2022-05-24 22:55:09 GMT 50.869823 7.125877 0 317 23 0
2022-05-24 22:55:06 GMT 50.869503 7.126350 0 317 25 0
2022-05-24 22:55:01 GMT 50.869202 7.126789 0 317 25 0
2022-05-24 22:54:51 GMT 50.868427 7.127900 0 317 24 0
2022-05-24 22:54:47 GMT 50.868061 7.128438 0 317 24 0
2022-05-24 22:54:44 GMT 50.867817 7.128773 0 317 23 0
2022-05-24 22:54:34 GMT 50.867001 7.129974 0 317 24 0
2022-05-24 22:54:23 GMT 50.866177 7.131157 0 317 22 0
2022-05-24 22:54:12 GMT 50.865395 7.132298 0 317 20 0
2022-05-24 22:54:03 GMT 50.864849 7.133083 0 317 17 0
2022-05-24 22:53:53 GMT 50.864288 7.133904 0 317 15 0
2022-05-24 22:53:43 GMT 50.863861 7.134692 0 286 17 0
2022-05-24 22:53:33 GMT 50.863804 7.135824 0 250 18 0
2022-05-24 22:53:25 GMT 50.864094 7.136860 0 244 24 0
2022-05-24 22:53:22 GMT 50.864243 7.137337 0 241 24 0
2022-05-24 22:53:16 GMT 50.864895 7.139473 0 244 52 0
2022-05-24 22:53:13 GMT 50.864895 7.139473 0 244 52 0
2022-05-24 22:53:06 GMT 50.865669 7.142041 375 244 88 0
2022-05-24 22:52:45 GMT 50.870705 7.158661 400 245 130 -640
2022-05-24 22:52:42 GMT 50.871506 7.161379 450 245 129 -640
2022-05-24 22:52:38 GMT 50.872604 7.164942 475 245 129 -704
2022-05-24 22:52:35 GMT 50.873291 7.167169 500 245 128 -704
2022-05-24 22:52:29 GMT 50.875031 7.172852 575 245 127 -640
2022-05-24 22:52:26 GMT 50.875824 7.175522 600 245 127 -640
2022-05-24 22:52:22 GMT 50.876846 7.178879 650 245 126 -640
2022-05-24 22:52:18 GMT 50.877594 7.181347 675 245 126 -640
2022-05-24 22:52:14 GMT 50.878693 7.185133 725 245 125 -640
2022-05-24 22:52:09 GMT 50.879967 7.189255 825 245 125 -704
2022-05-24 22:52:03 GMT 50.881256 7.193595 850 245 123 -704
2022-05-24 22:52:00 GMT 50.882034 7.196193 900 245 123 -704
2022-05-24 22:51:55 GMT 50.883362 7.200573 975 245 123 -640
2022-05-24 22:51:52 GMT 50.884018 7.202835 975 245 124 -640
2022-05-24 22:51:49 GMT 50.885040 7.206192 1,050 245 123 -640
2022-05-24 22:51:44 GMT 50.886246 7.210149 1,075 245 123 -576
2022-05-24 22:51:40 GMT 50.887115 7.212896 1,100 245 122 -640
2022-05-24 22:51:34 GMT 50.888626 7.217795 1,175 245 121 -640
2022-05-24 22:51:31 GMT 50.889416 7.220459 1,200 245 120 -640
2022-05-24 22:51:27 GMT 50.890137 7.222768 1,250 245 120 -704
2022-05-24 22:51:24 GMT 50.890953 7.225571 1,325 245 120 -704
2022-05-24 22:51:20 GMT 50.891975 7.228928 1,325 245 120 -704
2022-05-24 22:51:14 GMT 50.893326 7.233353 1,400 246 123 -640
2022-05-24 22:51:11 GMT 50.893978 7.235489 1,400 245 122 -640
2022-05-24 22:51:05 GMT 50.895813 7.241549 1,500 245 123 -640
2022-05-24 22:51:00 GMT 50.898056 7.249047 2,625 245 123 -640
2022-05-24 22:50:55 GMT 50.898056 7.249047 1,600 245 123 -640
2022-05-24 22:50:52 GMT 50.898773 7.251511 1,625 245 123 -640
2022-05-24 22:50:49 GMT 50.899380 7.253418 1,650 245 124 -640
2022-05-24 22:50:46 GMT 50.900574 7.257509 1,700 245 125 -640
2022-05-24 22:50:43 GMT 50.901947 7.262037 1,725 245 125 -640
2022-05-24 22:50:40 GMT 50.901947 7.262037 1,775 245 125 -640
2022-05-24 22:50:35 GMT 50.903732 7.267976 1,850 245 124 -640
2022-05-24 22:50:32 GMT 50.903732 7.267976 1,850 245 124 -640
2022-05-24 22:50:29 GMT 50.904453 7.270432 1,875 245 123 -640
2022-05-24 22:50:25 GMT 50.905525 7.273941 1,975 245 123 -640
2022-05-24 22:50:22 GMT 50.906269 7.276459 1,950 245 124 -640
2022-05-24 22:50:19 GMT 50.906891 7.278591 1,975 245 124 -704
2022-05-24 22:50:16 GMT 50.907669 7.281041 2,225 245 126 -768
2022-05-24 22:50:13 GMT 50.908318 7.283173 2,050 245 124 -576
2022-05-24 22:50:09 GMT 50.909481 7.287140 2,075 245 124 -576
2022-05-24 22:50:05 GMT 50.910461 7.290245 2,125 244 124 -640
2022-05-24 22:50:02 GMT 50.911285 7.292918 2,150 245 125 -704
2022-05-24 22:49:59 GMT 50.911972 7.295219 2,200 245 126 -768
2022-05-24 22:49:56 GMT 50.912647 7.297516 2,250 245 131 -832
2022-05-24 22:49:53 GMT 50.914742 7.304382 2,325 245 132 -896
2022-05-24 22:49:49 GMT 50.914742 7.304382 2,350 245 136 -832
2022-05-24 22:49:45 GMT 50.915905 7.308350 2,400 245 141 -576
2022-05-24 22:49:41 GMT 50.916695 7.311020 2,425 245 143 -576
2022-05-24 22:49:36 GMT 50.918186 7.315903 2,475 245 146 -576
2022-05-24 22:49:32 GMT 50.919525 7.320383 2,700 245 150 -832
2022-05-24 22:49:28 GMT 50.920609 7.323990 2,625 245 154 -832
2022-05-24 22:49:24 GMT 50.921722 7.327732 2,625 245 154 -832
2022-05-24 22:49:21 GMT 50.922607 7.330704 2,700 245 157 -832
2022-05-24 22:49:18 GMT 50.923679 7.334442 2,725 245 159 -832
2022-05-24 22:49:15 GMT 50.924332 7.336502 2,750 245 160 -832
2022-05-24 22:49:12 GMT 50.925293 7.339758 2,875 245 165 -1024
2022-05-24 22:49:09 GMT 50.926483 7.343618 2,900 245 166 -1024
2022-05-24 22:49:05 GMT 50.928101 7.348938 2,950 245 168 -960
2022-05-24 22:49:01 GMT 50.929230 7.352749 3,000 245 171 -960
2022-05-24 22:48:58 GMT 50.930466 7.356757 3,050 245 172 -960
2022-05-24 22:48:54 GMT 50.931656 7.360840 3,125 245 173 -1024
2022-05-24 22:48:51 GMT 50.932663 7.364180 3,150 245 175 -1024
2022-05-24 22:48:47 GMT 50.933922 7.368240 3,225 245 175 -1088
2022-05-24 22:48:44 GMT 50.935181 7.372420 3,325 245 176 -1152
2022-05-24 22:48:41 GMT 50.936096 7.375315 3,425 245 178 -960
2022-05-24 22:48:37 GMT 50.937645 7.380447 3,425 245 180 -512
2022-05-24 22:48:34 GMT 50.938576 7.383499 3,425 245 184 -320
2022-05-24 22:48:31 GMT 50.940216 7.388825 3,450 245 186 -704
2022-05-24 22:48:28 GMT 50.940578 7.389984 3,475 245 186 -960
2022-05-24 22:48:26 GMT 50.942734 7.397213 3,550 245 186 -768
2022-05-24 22:48:23 GMT 50.942734 7.397213 3,550 245 186 -768
2022-05-24 22:48:20 GMT 50.943649 7.400257 3,600 245 186 -704
2022-05-24 22:48:19 GMT 50.944115 7.401886 3,600 245 186 -704
2022-05-24 22:48:17 GMT 50.945068 7.405008 3,650 245 185 -576
2022-05-24 22:48:14 GMT 50.945652 7.406921 3,650 245 185 -512
2022-05-24 22:48:13 GMT 50.946304 7.409091 3,675 245 186 -512
2022-05-24 22:48:12 GMT 50.946625 7.410278 3,675 245 186 -512
2022-05-24 22:48:10 GMT 50.947357 7.412728 3,750 245 186 -448
2022-05-24 22:48:07 GMT 50.948822 7.417553 3,750 245 185 -512
2022-05-24 22:48:04 GMT 50.951237 7.425766 3,750 245 185 -512
2022-05-24 22:48:00 GMT 50.951237 7.425766 3,850 245 186 -512
2022-05-24 22:47:54 GMT 50.953308 7.432696 3,850 245 186 -512
2022-05-24 22:47:51 GMT 50.954590 7.436853 3,875 245 186 -512
2022-05-24 22:47:47 GMT 50.955826 7.440936 3,875 245 186 -512
2022-05-24 22:47:44 GMT 50.957016 7.445019 3,925 245 186 -512
2022-05-24 22:47:40 GMT 50.958527 7.450067 3,950 245 186 -512
2022-05-24 22:47:37 GMT 50.961136 7.458826 4,000 245 186 -512
2022-05-24 22:47:34 GMT 50.961136 7.458826 4,000 245 187 -512
2022-05-24 22:47:30 GMT 50.962418 7.463131 4,025 245 187 -512
2022-05-24 22:47:26 GMT 50.964645 7.470703 4,075 246 189 -512
2022-05-24 22:47:23 GMT 50.964645 7.470703 4,075 246 189 -512
2022-05-24 22:47:20 GMT 50.966171 7.475974 4,125 245 193 -512
2022-05-24 22:47:14 GMT 50.968460 7.483545 4,175 246 196 -512
2022-05-24 22:47:11 GMT 50.969604 7.487480 4,200 245 198 -512
2022-05-24 22:47:08 GMT 50.970558 7.490692 4,225 245 199 -512
2022-05-24 22:47:04 GMT 50.972351 7.496833 4,300 245 204 -512
2022-05-24 22:47:01 GMT 50.974655 7.504578 4,300 245 205 -512
2022-05-24 22:46:58 GMT 50.974655 7.504578 4,300 245 206 -512
2022-05-24 22:46:53 GMT 50.976562 7.510937 4,375 246 208 -512
2022-05-24 22:46:50 GMT 50.977913 7.515411 4,375 245 207 -512
2022-05-24 22:46:46 GMT 50.979309 7.520142 4,450 246 208 -512
2022-05-24 22:46:43 GMT 50.980682 7.524818 4,450 246 210 -512
2022-05-24 22:46:40 GMT 50.981964 7.529144 4,450 246 210 -512
2022-05-24 22:46:36 GMT 50.983612 7.534765 4,500 245 212 -512
2022-05-24 22:46:33 GMT 50.984848 7.538986 4,525 246 212 -512
2022-05-24 22:46:30 GMT 50.985992 7.542857 4,550 246 214 -512
2022-05-24 22:46:27 GMT 50.987183 7.547088 4,575 249 218 -512
2022-05-24 22:46:22 GMT 50.989197 7.554363 4,600 249 218 -512
2022-05-24 22:46:20 GMT 50.991646 7.564621 4,675 251 220 -448
2022-05-24 22:46:16 GMT 50.991646 7.564621 4,675 254 220 -384
2022-05-24 22:46:13 GMT 50.992298 7.567749 4,675 277 229 -640
2022-05-24 22:46:10 GMT 50.993694 7.577133 4,775 277 229 -640
2022-05-24 22:46:07 GMT 50.993694 7.577133 4,775 277 229 -640
2022-05-24 22:46:03 GMT 50.994186 7.583907 4,775 277 229 -640
2022-05-24 22:46:00 GMT 50.994232 7.589029 4,825 277 229 -640
2022-05-24 22:45:57 GMT 50.994064 7.593536 4,825 277 229 -640
2022-05-24 22:45:56 GMT 50.993973 7.595215 4,825 277 229 -640
2022-05-24 22:45:54 GMT 50.993553 7.599640 4,875 283 232 -576
2022-05-24 22:45:51 GMT 50.993042 7.603578 4,875 283 232 -576
2022-05-24 22:45:49 GMT 50.991924 7.611465 4,925 284 235 -512
2022-05-24 22:45:47 GMT 50.991924 7.611465 4,925 283 237 -512
2022-05-24 22:45:46 GMT 50.991669 7.613080 4,925 283 237 -512
2022-05-24 22:45:43 GMT 50.990902 7.618408 4,975 283 238 -576
2022-05-24 22:45:42 GMT 50.990158 7.623621 4,975 283 239 -512
2022-05-24 22:45:40 GMT 50.990158 7.623621 5,000 283 241 -512
2022-05-24 22:45:37 GMT 50.989689 7.627106 5,050 283 243 -512
2022-05-24 22:45:33 GMT 50.988464 7.635795 5,050 283 246 -576
2022-05-24 22:45:30 GMT 50.987732 7.640917 5,075 283 247 -576
2022-05-24 22:45:27 GMT 50.987175 7.644730 5,125 284 259 -1088
2022-05-24 22:45:23 GMT 50.985260 7.658139 5,175 284 259 -1088
2022-05-24 22:45:20 GMT 50.985260 7.658139 5,175 284 259 -1088
2022-05-24 22:45:17 GMT 50.984615 7.662582 5,250 284 259 -1088
2022-05-24 22:45:14 GMT 50.983521 7.670016 5,250 284 259 -1088
2022-05-24 22:45:11 GMT 50.982845 7.674713 5,300 284 260 -1280
2022-05-24 22:45:07 GMT 50.981689 7.682710 5,600 284 263 -2368
2022-05-24 22:45:04 GMT 50.980545 7.690207 5,600 284 263 -2368
2022-05-24 22:45:01 GMT 50.979858 7.694809 5,625 284 262 -2368
2022-05-24 22:44:58 GMT 50.979168 7.699432 5,950 284 262 -2368
2022-05-24 22:44:54 GMT 50.978100 7.706451 5,950 284 262 -2368
2022-05-24 22:44:51 GMT 50.977352 7.711258 5,950 284 262 -2304
2022-05-24 22:44:48 GMT 50.976284 7.718124 6,125 284 263 -2112
2022-05-24 22:44:45 GMT 50.975586 7.722549 6,175 285 263 -2048
2022-05-24 22:44:42 GMT 50.974606 7.728729 6,300 285 265 -1664
2022-05-24 22:44:40 GMT 50.973957 7.732773 6,375 285 266 -1536
2022-05-24 22:44:39 GMT 50.973446 7.736130 6,400 285 267 -1536
2022-05-24 22:44:38 GMT 50.973164 7.737808 6,425 285 267 -1536
2022-05-24 22:44:37 GMT 50.972839 7.739716 6,450 285 268 -1600
2022-05-24 22:44:34 GMT 50.971939 7.745287 6,550 285 268 -1920
2022-05-24 22:44:32 GMT 50.971344 7.748776 6,775 285 269 -2048
2022-05-24 22:44:29 GMT 50.970371 7.754745 6,775 285 269 -2432
2022-05-24 22:44:26 GMT 50.969719 7.758484 6,775 285 269 -2432
2022-05-24 22:44:23 GMT 50.968414 7.766221 7,125 285 269 -2816
2022-05-24 22:44:19 GMT 50.967361 7.772530 7,125 285 269 -2496
2022-05-24 22:44:18 GMT 50.966995 7.774831 7,175 285 269 -1664
2022-05-24 22:44:17 GMT 50.966370 7.778625 7,225 285 270 -1344
2022-05-24 22:44:15 GMT 50.966034 7.780473 7,250 285 270 -1344
2022-05-24 22:44:14 GMT 50.965759 7.782329 7,275 285 271 -1088
2022-05-24 22:44:11 GMT 50.964645 7.789078 7,325 285 274 -896
2022-05-24 22:44:08 GMT 50.963528 7.795639 7,375 285 276 -832
2022-05-24 22:44:07 GMT 50.963528 7.795639 7,375 285 276 -832
2022-05-24 22:44:04 GMT 50.962418 7.802668 7,425 285 279 -832
2022-05-24 22:44:02 GMT 50.961914 7.805563 7,425 285 280 -896
2022-05-24 22:44:01 GMT 50.961575 7.807770 7,450 285 281 -960
2022-05-24 22:44:00 GMT 50.961201 7.809982 7,475 285 282 -960
2022-05-24 22:43:59 GMT 50.960541 7.813952 7,500 285 283 -1152
2022-05-24 22:43:57 GMT 50.960361 7.815094 7,525 285 283 -1216
2022-05-24 22:43:56 GMT 50.959946 7.817441 7,550 285 284 -1472
2022-05-24 22:43:54 GMT 50.959293 7.821579 7,600 285 284 -1600
2022-05-24 22:43:52 GMT 50.958591 7.825699 7,725 285 285 -1664
2022-05-24 22:43:49 GMT 50.957710 7.830811 7,725 285 285 -1728
2022-05-24 22:43:48 GMT 50.957432 7.832718 7,750 285 285 -1728
2022-05-24 22:43:47 GMT 50.956917 7.835770 7,800 285 285 -1792
2022-05-24 22:43:46 GMT 50.956558 7.837780 7,825 285 286 -1792
2022-05-24 22:43:45 GMT 50.955849 7.842178 7,900 285 286 -1792
2022-05-24 22:43:43 GMT 50.955475 7.844238 7,925 285 286 -1792
2022-05-24 22:43:40 GMT 50.954636 7.849197 7,950 285 286 -1856
2022-05-24 22:43:39 GMT 50.954178 7.852033 8,025 285 287 -1856
2022-05-24 22:43:38 GMT 50.953426 7.856369 8,100 285 287 -1856
2022-05-24 22:43:35 GMT 50.952774 7.860260 8,175 286 287 -1856
2022-05-24 22:43:34 GMT 50.952030 7.864532 8,225 286 287 -1856
2022-05-24 22:43:32 GMT 50.951702 7.866516 8,250 286 287 -1792
2022-05-24 22:43:30 GMT 50.951145 7.869949 8,300 286 288 -1792
2022-05-24 22:43:29 GMT 50.950726 7.872238 8,350 286 288 -1792
2022-05-24 22:43:28 GMT 50.950333 7.874525 8,375 286 289 -1856
2022-05-24 22:43:27 GMT 50.949646 7.878682 8,450 286 289 -1856
2022-05-24 22:43:25 GMT 50.949234 7.880983 8,475 286 289 -1792
2022-05-24 22:43:23 GMT 50.948677 7.884216 8,525 286 290 -1728
2022-05-24 22:43:22 GMT 50.948273 7.886550 8,575 286 290 -1664
2022-05-24 22:43:21 GMT 50.947540 7.890782 8,600 286 291 -1600
2022-05-24 22:43:18 GMT 50.946770 7.895432 8,675 286 291 -1728
2022-05-24 22:43:16 GMT 50.946030 7.899615 8,725 286 291 -1856
2022-05-24 22:43:14 GMT 50.945480 7.902956 8,775 286 291 -1792
2022-05-24 22:43:13 GMT 50.945091 7.905121 8,800 286 291 -1792
2022-05-24 22:43:11 GMT 50.944210 7.910309 8,850 286 292 -1728
2022-05-24 22:43:10 GMT 50.943882 7.912140 8,900 286 292 -1728
2022-05-24 22:43:08 GMT 50.943092 7.916794 8,950 286 292 -1728
2022-05-24 22:43:07 GMT 50.942764 7.918701 9,000 286 292 -1856
2022-05-24 22:43:06 GMT 50.942394 7.920685 9,025 286 292 -1856
2022-05-24 22:43:05 GMT 50.941696 7.924728 9,100 286 292 -1920
2022-05-24 22:43:02 GMT 50.941044 7.928619 9,150 286 292 -1920
2022-05-24 22:43:00 GMT 50.940346 7.932510 9,225 286 292 -1920
2022-05-24 22:42:59 GMT 50.940018 7.934418 9,250 286 292 -1984
2022-05-24 22:42:57 GMT 50.939163 7.939181 9,325 286 292 -1984
2022-05-24 22:42:56 GMT 50.938980 7.940220 9,350 286 293 -1984
2022-05-24 22:42:55 GMT 50.937927 7.946381 9,450 286 293 -1856
2022-05-24 22:42:52 GMT 50.937504 7.948837 9,450 286 293 -1856
2022-05-24 22:42:51 GMT 50.937057 7.951207 9,500 286 293 -1792
2022-05-24 22:42:50 GMT 50.936646 7.953582 9,550 286 293 -1792
2022-05-24 22:42:48 GMT 50.936005 7.957368 9,600 286 294 -1792
2022-05-24 22:42:47 GMT 50.935684 7.959298 9,625 286 294 -1728
2022-05-24 22:42:46 GMT 50.934906 7.963603 9,675 286 294 -1728
2022-05-24 22:42:44 GMT 50.934631 7.965385 9,725 286 295 -1728
2022-05-24 22:42:43 GMT 50.933922 7.969437 9,775 286 295 -1664
2022-05-24 22:42:41 GMT 50.933441 7.972288 9,800 286 295 -1664
2022-05-24 22:42:40 GMT 50.933083 7.974243 9,825 286 296 -1600
2022-05-24 22:42:39 GMT 50.932339 7.978592 9,950 286 297 -1792
2022-05-24 22:42:36 GMT 50.931656 7.982607 9,950 286 297 -1792
2022-05-24 22:42:33 GMT 50.930878 7.987135 10,000 286 297 -1792
2022-05-24 22:42:32 GMT 50.930290 7.990494 10,025 286 297 -1792
2022-05-24 22:42:31 GMT 50.929779 7.993519 10,100 286 298 -1728
2022-05-24 22:42:30 GMT 50.929413 7.995449 10,125 286 298 -1728
2022-05-24 22:42:28 GMT 50.928726 7.999606 10,175 286 298 -1728
2022-05-24 22:42:27 GMT 50.928333 8.001938 10,200 286 299 -1728
2022-05-24 22:42:25 GMT 50.927628 8.005915 10,275 286 299 -1728
2022-05-24 22:42:24 GMT 50.927311 8.007889 10,300 286 299 -1664
2022-05-24 22:42:23 GMT 50.926575 8.012299 10,350 286 300 -1600
2022-05-24 22:42:21 GMT 50.926239 8.014297 10,375 286 300 -1600
2022-05-24 22:42:20 GMT 50.925568 8.018238 10,425 286 301 -1536
2022-05-24 22:42:18 GMT 50.925201 8.020316 10,450 285 301 -1536
2022-05-24 22:42:17 GMT 50.924797 8.022690 10,475 285 301 -1536
2022-05-24 22:42:15 GMT 50.924057 8.027294 10,525 285 302 -1664
2022-05-24 22:42:14 GMT 50.923401 8.031158 10,550 285 302 -1728
2022-05-24 22:42:12 GMT 50.922840 8.034592 10,625 285 302 -1920
2022-05-24 22:42:11 GMT 50.922501 8.036573 10,825 285 302 -2240
2022-05-24 22:42:06 GMT 50.920990 8.045926 10,825 285 302 -2432
2022-05-24 22:42:05 GMT 50.920235 8.050461 10,900 285 301 -2688
2022-05-24 22:42:03 GMT 50.919891 8.052459 11,000 285 300 -2752
2022-05-24 22:42:02 GMT 50.918839 8.059006 11,075 285 299 -3072
2022-05-24 22:42:00 GMT 50.918839 8.059006 11,225 285 296 -3648
2022-05-24 22:41:57 GMT 50.917786 8.065449 11,225 285 296 -3648
2022-05-24 22:41:55 GMT 50.917347 8.068237 11,500 285 291 -3648
2022-05-24 22:41:53 GMT 50.916279 8.074570 11,550 285 290 -3584
2022-05-24 22:41:51 GMT 50.915817 8.077327 11,625 285 289 -3520
2022-05-24 22:41:50 GMT 50.915161 8.081360 11,850 285 287 -3008
2022-05-24 22:41:47 GMT 50.913940 8.088758 11,925 285 286 -3136
2022-05-24 22:41:46 GMT 50.913940 8.088758 11,925 285 285 -3328
2022-05-24 22:41:44 GMT 50.913391 8.092041 12,025 285 285 -3328
2022-05-24 22:41:42 GMT 50.912880 8.095016 12,100 285 282 -3456
2022-05-24 22:41:41 GMT 50.912338 8.098186 12,200 286 280 -3328
2022-05-24 22:41:40 GMT 50.912018 8.100116 12,250 286 279 -3136
2022-05-24 22:41:39 GMT 50.911697 8.101897 12,275 285 279 -2816
2022-05-24 22:41:38 GMT 50.911057 8.105757 12,375 285 279 -2176
2022-05-24 22:41:36 GMT 50.910690 8.107984 12,425 286 279 -2048
2022-05-24 22:41:34 GMT 50.910141 8.111251 12,475 286 279 -1984
2022-05-24 22:41:33 GMT 50.909775 8.113478 12,500 285 279 -1920
2022-05-24 22:41:32 GMT 50.909294 8.116150 12,550 285 280 -1920
2022-05-24 22:41:30 GMT 50.908688 8.119812 12,600 285 281 -2048
2022-05-24 22:41:29 GMT 50.908363 8.121567 12,625 285 281 -2176
2022-05-24 22:41:27 GMT 50.907757 8.125381 12,700 285 281 -2304
2022-05-24 22:41:26 GMT 50.907387 8.127441 12,750 285 282 -2240
2022-05-24 22:41:25 GMT 50.906662 8.131887 12,825 285 283 -2240
2022-05-24 22:41:22 GMT 50.906204 8.134634 12,875 285 284 -2304
2022-05-24 22:41:20 GMT 50.905525 8.138733 13,000 285 284 -2304
2022-05-24 22:41:17 GMT 50.904266 8.146286 13,100 285 285 -2240
2022-05-24 22:41:13 GMT 50.903183 8.152820 13,200 285 287 -2176
2022-05-24 22:41:11 GMT 50.902451 8.157349 13,275 285 289 -2176
2022-05-24 22:41:09 GMT 50.901810 8.161134 13,350 285 289 -2432
2022-05-24 22:41:07 GMT 50.901077 8.165440 13,500 286 291 -2496
2022-05-24 22:41:05 GMT 50.900356 8.169556 13,550 286 291 -2496
2022-05-24 22:41:04 GMT 50.899979 8.171675 13,650 286 293 -2240
2022-05-24 22:41:02 GMT 50.898926 8.177911 13,700 286 293 -2240
2022-05-24 22:41:00 GMT 50.898605 8.179841 13,725 285 293 -2240
2022-05-24 22:40:58 GMT 50.897888 8.183975 13,800 286 296 -2048
2022-05-24 22:40:56 GMT 50.897232 8.188006 13,900 286 297 -2048
2022-05-24 22:40:54 GMT 50.896538 8.191986 13,925 285 298 -1920
2022-05-24 22:40:53 GMT 50.896168 8.194199 13,975 285 299 -1792
2022-05-24 22:40:52 GMT 50.895470 8.198395 14,050 285 301 -1664
2022-05-24 22:40:49 GMT 50.894394 8.204931 14,100 285 303 -1664
2022-05-24 22:40:47 GMT 50.893982 8.207233 14,125 285 305 -1664
2022-05-24 22:40:45 GMT 50.893295 8.211538 14,200 285 306 -1664
2022-05-24 22:40:44 GMT 50.892883 8.213839 14,225 285 307 -1728
2022-05-24 22:40:43 GMT 50.892517 8.216066 14,275 285 308 -1792
2022-05-24 22:40:40 GMT 50.891418 8.222504 14,350 285 310 -2432
2022-05-24 22:40:39 GMT 50.891052 8.224751 14,475 285 311 -2752
2022-05-24 22:40:37 GMT 50.890255 8.229675 14,525 285 312 -3136
2022-05-24 22:40:35 GMT 50.889542 8.234030 14,750 285 312 -3136
2022-05-24 22:40:33 GMT 50.888718 8.238855 14,750 285 313 -3072
2022-05-24 22:40:30 GMT 50.887554 8.245850 14,900 285 313 -3072
2022-05-24 22:40:28 GMT 50.886623 8.251572 14,975 285 313 -3136
2022-05-24 22:40:27 GMT 50.886623 8.251572 15,150 285 314 -3136
2022-05-24 22:40:25 GMT 50.885319 8.259125 15,250 286 316 -3264
2022-05-24 22:40:22 GMT 50.884689 8.262981 15,250 286 316 -3264
2022-05-24 22:40:20 GMT 50.883911 8.267509 15,375 286 315 -3392
2022-05-24 22:40:18 GMT 50.883179 8.271790 15,475 286 315 -3392
2022-05-24 22:40:17 GMT 50.882721 8.274338 15,550 286 316 -3200
2022-05-24 22:40:15 GMT 50.881165 8.283543 15,775 286 317 -3392
2022-05-24 22:40:13 GMT 50.881165 8.283543 15,775 286 317 -3392
2022-05-24 22:40:12 GMT 50.880798 8.285547 15,825 286 317 -3456
2022-05-24 22:40:10 GMT 50.880058 8.290024 16,000 286 317 -3584
2022-05-24 22:40:08 GMT 50.879425 8.293713 16,000 286 317 -3584
2022-05-24 22:40:07 GMT 50.879036 8.296051 16,125 286 317 -3776
2022-05-24 22:40:06 GMT 50.878616 8.298340 16,200 286 317 -4096
2022-05-24 22:40:04 GMT 50.877914 8.302324 16,275 286 316 -4288
2022-05-24 22:40:03 GMT 50.877544 8.304367 16,375 286 316 -4480
2022-05-24 22:40:01 GMT 50.876614 8.309784 16,525 286 315 -4672
2022-05-24 22:39:59 GMT 50.875870 8.313980 16,650 286 313 -4736
2022-05-24 22:39:58 GMT 50.875534 8.316131 16,775 286 313 -4736
2022-05-24 22:39:57 GMT 50.875031 8.318729 16,975 286 311 -4800
2022-05-24 22:39:55 GMT 50.874287 8.323059 17,025 286 310 -4992
2022-05-24 22:39:54 GMT 50.873867 8.325348 17,100 286 308 -4992
2022-05-24 22:39:53 GMT 50.873108 8.329715 17,275 286 307 -4992
2022-05-24 22:39:50 GMT 50.872471 8.333282 17,400 286 306 -4864
2022-05-24 22:39:48 GMT 50.871819 8.337173 17,650 286 304 -4672
2022-05-24 22:39:46 GMT 50.871029 8.341599 17,725 286 303 -4544
2022-05-24 22:39:45 GMT 50.869720 8.348867 18,100 287 300 -4288
2022-05-24 22:39:43 GMT 50.869720 8.348867 18,100 287 300 -4288
2022-05-24 22:39:41 GMT 50.868988 8.352876 18,100 287 300 -4288
2022-05-24 22:39:39 GMT 50.868282 8.356781 18,300 287 299 -4160
2022-05-24 22:39:37 GMT 50.867397 8.361664 18,425 287 298 -4096
2022-05-24 22:39:36 GMT 50.866974 8.363788 18,475 287 298 -4032
2022-05-24 22:39:35 GMT 50.866196 8.367945 18,600 287 296 -4032
2022-05-24 22:39:33 GMT 50.865814 8.370132 18,675 287 296 -4032
2022-05-24 22:39:32 GMT 50.865372 8.372324 18,725 287 294 -4032
2022-05-24 22:39:30 GMT 50.864742 8.375778 18,875 287 294 -4032
2022-05-24 22:39:29 GMT 50.864319 8.377892 18,925 288 293 -3968
2022-05-24 22:39:27 GMT 50.863495 8.382123 19,025 288 293 -3968
2022-05-24 22:39:26 GMT 50.863113 8.384094 19,125 288 292 -3904
2022-05-24 22:39:25 GMT 50.862743 8.386002 19,200 288 292 -3840
2022-05-24 22:39:23 GMT 50.862030 8.389843 19,250 288 291 -3776
2022-05-24 22:39:22 GMT 50.861618 8.391773 19,375 288 291 -3648
2022-05-24 22:39:21 GMT 50.860741 8.396301 19,425 288 290 -3520
2022-05-24 22:39:19 GMT 50.860336 8.398528 19,550 288 290 -3392
2022-05-24 22:39:18 GMT 50.859604 8.402240 19,625 288 290 -3200
2022-05-24 22:39:16 GMT 50.859192 8.404393 19,725 288 290 -3072
2022-05-24 22:39:15 GMT 50.858784 8.406372 19,825 288 290 -2752
2022-05-24 22:39:13 GMT 50.857948 8.410645 19,825 288 290 -2496
2022-05-24 22:39:12 GMT 50.857574 8.412704 19,875 287 290 -2048
2022-05-24 22:39:11 GMT 50.857204 8.414688 19,925 287 290 -1984
2022-05-24 22:39:09 GMT 50.856411 8.418732 19,975 287 291 -1856
2022-05-24 22:39:07 GMT 50.855667 8.422775 20,050 287 291 -1856
2022-05-24 22:39:04 GMT 50.853790 8.432823 20,175 286 291 -1920
2022-05-24 22:39:02 GMT 50.853790 8.432823 20,200 286 291 -1920
2022-05-24 22:39:01 GMT 50.853058 8.436980 20,250 286 290 -2112
2022-05-24 22:38:59 GMT 50.852692 8.439207 20,300 286 291 -2176
2022-05-24 22:38:58 GMT 50.852371 8.441063 20,325 285 290 -2240
2022-05-24 22:38:56 GMT 50.851685 8.444997 20,400 285 290 -2176
2022-05-24 22:38:55 GMT 50.851364 8.446853 20,425 285 290 -2176
2022-05-24 22:38:53 GMT 50.850685 8.450851 20,500 285 290 -2112
2022-05-24 22:38:52 GMT 50.850361 8.452835 20,550 285 289 -2048
2022-05-24 22:38:50 GMT 50.849899 8.455835 20,600 284 289 -1984
2022-05-24 22:38:49 GMT 50.849396 8.459027 20,650 284 289 -1920
2022-05-24 22:38:48 GMT 50.849030 8.461403 20,675 284 289 -1856
2022-05-24 22:38:46 GMT 50.848389 8.465634 20,750 284 289 -1792
2022-05-24 22:38:45 GMT 50.848068 8.467564 20,775 284 289 -1728
2022-05-24 22:38:43 GMT 50.847473 8.471680 20,825 284 290 -1600
2022-05-24 22:38:42 GMT 50.847153 8.473725 20,850 284 291 -1536
2022-05-24 22:38:40 GMT 50.846497 8.477783 20,900 286 293 -1472
2022-05-24 22:38:39 GMT 50.846169 8.479767 20,925 286 293 -1472
2022-05-24 22:38:38 GMT 50.845825 8.481891 21,100 286 294 -1600
2022-05-24 22:38:36 GMT 50.845047 8.486048 21,000 288 296 -1792
2022-05-24 22:38:35 GMT 50.844635 8.488052 21,250 290 297 -1856
2022-05-24 22:38:33 GMT 50.843563 8.492584 21,100 292 299 -1920
2022-05-24 22:38:31 GMT 50.842491 8.496628 21,175 295 301 -1792
2022-05-24 22:38:29 GMT 50.841339 8.500523 21,225 297 305 -1408
2022-05-24 22:38:28 GMT 50.840744 8.502453 21,250 298 306 -1152
2022-05-24 22:38:26 GMT 50.839325 8.506536 21,275 300 309 -960
2022-05-24 22:38:25 GMT 50.838638 8.508392 21,300 302 311 -960
2022-05-24 22:38:24 GMT 50.837173 8.512103 21,325 304 316 -1024
2022-05-24 22:38:22 GMT 50.836395 8.513947 21,350 305 318 -1088
2022-05-24 22:38:21 GMT 50.835388 8.516186 21,375 306 320 -1088
2022-05-24 22:38:19 GMT 50.833603 8.519897 21,400 309 323 -1088
2022-05-24 22:38:18 GMT 50.832764 8.521576 21,425 310 325 -1088
2022-05-24 22:38:16 GMT 50.830536 8.525613 21,450 312 327 -1024
2022-05-24 22:38:15 GMT 50.829620 8.527246 21,475 314 331 -960
2022-05-24 22:38:13 GMT 50.827923 8.529968 21,500 316 334 -960
2022-05-24 22:38:12 GMT 50.825134 8.534224 21,525 318 337 -896
2022-05-24 22:38:09 GMT 50.822021 8.538678 21,575 321 343 -832
2022-05-24 22:38:06 GMT 50.818333 8.543396 21,600 323 348 -832
2022-05-24 22:38:04 GMT 50.816982 8.545074 21,625 325 351 -896
2022-05-24 22:38:03 GMT 50.815567 8.546695 21,650 326 352 -896
2022-05-24 22:38:01 GMT 50.812912 8.549590 21,675 327 356 -960
2022-05-24 22:37:59 GMT 50.808414 8.554230 21,725 330 360 -1088
2022-05-24 22:37:57 GMT 50.807205 8.555374 21,750 331 361 -1152
2022-05-24 22:37:56 GMT 50.805862 8.556642 21,750 331 363 -1152
2022-05-24 22:37:54 GMT 50.803116 8.559092 21,800 333 365 -1088
2022-05-24 22:37:53 GMT 50.801514 8.560428 21,825 333 365 -1088
2022-05-24 22:37:51 GMT 50.798538 8.562804 21,850 335 369 -960
2022-05-24 22:37:50 GMT 50.797104 8.563919 21,875 335 369 -960
2022-05-24 22:37:49 GMT 50.793777 8.566367 21,900 337 372 -1024
2022-05-24 22:37:47 GMT 50.792175 8.567480 21,925 340 377 -1152
2022-05-24 22:37:46 GMT 50.790436 8.568594 21,950 340 377 -1152
2022-05-24 22:37:43 GMT 50.785698 8.571320 22,000 341 378 -1344
2022-05-24 22:37:42 GMT 50.784161 8.572159 22,025 345 384 -1792
2022-05-24 22:37:41 GMT 50.782471 8.572973 22,050 345 384 -1792
2022-05-24 22:37:39 GMT 50.778625 8.574532 22,125 349 387 -2048
2022-05-24 22:37:38 GMT 50.777039 8.575058 22,150 349 387 -2112
2022-05-24 22:37:37 GMT 50.773361 8.576165 22,225 353 391 -2112
2022-05-24 22:37:35 GMT 50.771530 8.576611 22,275 354 392 -2112
2022-05-24 22:37:34 GMT 50.767963 8.577194 22,325 357 394 -2112
2022-05-24 22:37:32 GMT 50.766174 8.577501 22,375 358 395 -2112
2022-05-24 22:37:31 GMT 50.764282 8.577652 22,400 359 396 -2176
2022-05-24 22:37:29 GMT 50.760223 8.577798 22,475 0 398 -2176
2022-05-24 22:37:27 GMT 50.756744 8.577728 22,550 2 399 -2112
2022-05-24 22:37:25 GMT 50.753952 8.577427 22,575 3 400 -2048
2022-05-24 22:37:22 GMT 50.748413 8.576462 22,700 5 402 -2048
2022-05-24 22:37:21 GMT 50.742313 8.574829 22,800 11 406 -1856
2022-05-24 22:37:19 GMT 50.742313 8.574829 22,800 13 407 -1856
2022-05-24 22:37:18 GMT 50.738449 8.573456 22,875 15 409 -1792
2022-05-24 22:37:15 GMT 50.736557 8.572602 22,900 16 410 -1728
2022-05-24 22:37:14 GMT 50.734818 8.571860 22,950 17 410 -1664
2022-05-24 22:37:12 GMT 50.731293 8.570078 22,975 19 411 -1600
2022-05-24 22:37:11 GMT 50.729462 8.569039 23,000 21 412 -1536
2022-05-24 22:37:10 GMT 50.725182 8.566360 23,075 23 414 -1600
2022-05-24 22:37:08 GMT 50.723511 8.565253 23,075 24 414 -1664
2022-05-24 22:37:07 GMT 50.721909 8.564140 23,125 25 415 -1664
2022-05-24 22:37:06 GMT 50.718571 8.561478 23,175 27 415 -1664
2022-05-24 22:37:04 GMT 50.716755 8.559952 23,250 30 417 -1728
2022-05-24 22:37:02 GMT 50.712425 8.555984 23,300 33 419 -1728
2022-05-24 22:37:00 GMT 50.708725 8.552263 23,350 34 418 -1728
2022-05-24 22:36:58 GMT 50.706528 8.549739 23,375 36 420 -1728
2022-05-24 22:36:57 GMT 50.704880 8.547809 23,450 37 419 -1856
2022-05-24 22:36:56 GMT 50.703396 8.545990 23,475 39 420 -1920
2022-05-24 22:36:55 GMT 50.699524 8.540831 23,525 41 420 -1984
2022-05-24 22:36:53 GMT 50.698059 8.538752 23,575 42 420 -2048
2022-05-24 22:36:51 GMT 50.696686 8.536748 23,600 45 421 -2048
2022-05-24 22:36:50 GMT 50.691708 8.528519 23,650 48 420 -2048
2022-05-24 22:36:48 GMT 50.691708 8.528519 23,725 50 422 -2112
2022-05-24 22:36:47 GMT 50.690414 8.526133 23,775 50 422 -2112
2022-05-24 22:36:44 GMT 50.687485 8.520491 23,825 54 421 -2048
2022-05-24 22:36:42 GMT 50.684586 8.514328 23,950 55 422 -1984
2022-05-24 22:36:41 GMT 50.683365 8.511509 23,975 57 422 -1920
2022-05-24 22:36:39 GMT 50.681625 8.507352 24,025 58 421 -1920
2022-05-24 22:36:38 GMT 50.680538 8.504486 24,075 59 421 -1856
2022-05-24 22:36:36 GMT 50.678581 8.499069 24,125 61 421 -1792
2022-05-24 22:36:35 GMT 50.677643 8.496366 24,200 64 422 -1664
2022-05-24 22:36:33 GMT 50.675583 8.489759 24,200 65 421 -1600
2022-05-24 22:36:32 GMT 50.674713 8.486716 24,250 67 421 -1600
2022-05-24 22:36:31 GMT 50.673889 8.483598 24,275 67 421 -1600
2022-05-24 22:36:29 GMT 50.672104 8.475878 24,350 72 420 -1472
2022-05-24 22:36:26 GMT 50.670948 8.470385 24,375 73 419 -1408
2022-05-24 22:36:25 GMT 50.670456 8.467712 24,400 74 419 -1408
2022-05-24 22:36:24 GMT 50.669907 8.464749 24,425 75 419 -1344
2022-05-24 22:36:21 GMT 50.668571 8.455464 24,500 80 417 -1280
2022-05-24 22:36:19 GMT 50.667847 8.448992 24,550 81 416 -1216
2022-05-24 22:36:17 GMT 50.667160 8.440174 24,600 84 414 -1152
2022-05-24 22:36:15 GMT 50.666988 8.437129 24,625 86 413 -1216
2022-05-24 22:36:14 GMT 50.666897 8.434234 24,650 87 413 -1280
2022-05-24 22:36:13 GMT 50.666851 8.431636 24,650 88 412 -1408
2022-05-24 22:36:10 GMT 50.666897 8.422357 24,725 92 410 -1536
2022-05-24 22:36:07 GMT 50.667206 8.414588 24,850 98 405 -1472
2022-05-24 22:36:05 GMT 50.667782 8.407065 24,850 98 405 -1472
2022-05-24 22:36:03 GMT 50.668247 8.402388 24,900 101 401 -1536
2022-05-24 22:36:02 GMT 50.669037 8.396590 24,950 103 400 -1536
2022-05-24 22:35:59 GMT 50.669968 8.390734 24,975 105 398 -1600
2022-05-24 22:35:58 GMT 50.670437 8.388210 25,025 106 397 -1600
2022-05-24 22:35:57 GMT 50.670715 8.386651 25,050 108 396 -1600
2022-05-24 22:35:56 GMT 50.672157 8.379898 25,100 110 394 -1600
2022-05-24 22:35:54 GMT 50.672516 8.378486 25,125 111 392 -1600
2022-05-24 22:35:53 GMT 50.674118 8.372324 25,175 114 389 -1600
2022-05-24 22:35:50 GMT 50.675583 8.367499 25,225 117 387 -1664
2022-05-24 22:35:49 GMT 50.676395 8.364868 25,250 118 386 -1664
2022-05-24 22:35:48 GMT 50.677689 8.361190 25,300 120 383 -1728
2022-05-24 22:35:47 GMT 50.678558 8.358814 25,325 120 383 -1728
2022-05-24 22:35:44 GMT 50.683052 8.348389 25,450 127 376 -2112
2022-05-24 22:35:42 GMT 50.683052 8.348389 25,475 127 376 -2112
2022-05-24 22:35:41 GMT 50.684052 8.346343 25,600 130 373 -2304
2022-05-24 22:35:39 GMT 50.686310 8.342056 25,600 131 371 -2368
2022-05-24 22:35:38 GMT 50.687531 8.339959 25,625 132 370 -2496
2022-05-24 22:35:37 GMT 50.688675 8.337955 25,675 134 368 -2624
2022-05-24 22:35:35 GMT 50.691193 8.334021 25,775 136 365 -2624
2022-05-24 22:35:34 GMT 50.692383 8.332313 25,825 138 364 -2624
2022-05-24 22:35:33 GMT 50.693523 8.330688 25,950 145 357 -2944
2022-05-24 22:35:31 GMT 50.697601 8.325484 26,100 145 357 -2944
2022-05-24 22:35:30 GMT 50.697601 8.325484 26,100 145 357 -2944
2022-05-24 22:35:28 GMT 50.700367 8.322296 26,100 145 357 -2944
2022-05-24 22:35:27 GMT 50.701576 8.320999 26,150 147 355 -3008
2022-05-24 22:35:25 GMT 50.704372 8.318329 26,275 149 354 -2944
2022-05-24 22:35:24 GMT 50.705612 8.317170 26,350 150 352 -2816
2022-05-24 22:35:22 GMT 50.708633 8.314572 26,475 154 351 -2688
2022-05-24 22:35:20 GMT 50.711792 8.312196 26,475 159 346 -2816
2022-05-24 22:35:19 GMT 50.713310 8.311081 26,525 159 346 -2816
2022-05-24 22:35:17 GMT 50.716476 8.309097 26,625 159 346 -2880
2022-05-24 22:35:16 GMT 50.720901 8.306778 26,725 162 345 -2816
2022-05-24 22:35:14 GMT 50.720901 8.306778 26,775 164 344 -2816
2022-05-24 22:35:13 GMT 50.723831 8.305516 26,850 165 343 -2752
2022-05-24 22:35:11 GMT 50.725414 8.304901 27,000 171 341 -2432
2022-05-24 22:35:09 GMT 50.728580 8.303833 27,000 171 341 -2432
2022-05-24 22:35:08 GMT 50.730103 8.303363 27,025 171 341 -2432
2022-05-24 22:35:05 GMT 50.734543 8.302398 27,150 175 340 -2304
2022-05-24 22:35:03 GMT 50.737656 8.301926 27,275 178 340 -2176
2022-05-24 22:35:01 GMT 50.740906 8.301730 27,300 179 340 -2112
2022-05-24 22:34:59 GMT 50.743927 8.301656 27,375 183 340 -1984
2022-05-24 22:34:58 GMT 50.746124 8.301730 27,425 184 340 -1920
2022-05-24 22:34:56 GMT 50.749008 8.302027 27,475 185 340 -1792
2022-05-24 22:34:55 GMT 50.750645 8.302231 27,500 186 341 -1792
2022-05-24 22:34:54 GMT 50.752121 8.302472 27,525 187 341 -1728
2022-05-24 22:34:52 GMT 50.756603 8.303528 27,600 189 342 -1664
2022-05-24 22:34:51 GMT 50.756603 8.303528 27,600 190 343 -1664
2022-05-24 22:34:48 GMT 50.761490 8.305054 27,675 195 345 -1664
2022-05-24 22:34:47 GMT 50.763245 8.305738 27,725 196 346 -1664
2022-05-24 22:34:46 GMT 50.766495 8.307149 27,775 198 347 -1728
2022-05-24 22:34:44 GMT 50.768051 8.307891 27,800 199 347 -1728
2022-05-24 22:34:42 GMT 50.772152 8.310165 27,900 201 350 -1920
2022-05-24 22:34:40 GMT 50.773636 8.311009 27,925 203 351 -1984
2022-05-24 22:34:39 GMT 50.775146 8.311974 27,950 204 352 -2112
2022-05-24 22:34:36 GMT 50.780766 8.316040 28,075 207 354 -2624
2022-05-24 22:34:34 GMT 50.781929 8.316956 28,150 209 354 -3136
2022-05-24 22:34:33 GMT 50.784714 8.319323 28,225 209 354 -3328
2022-05-24 22:34:31 GMT 50.786636 8.321030 28,325 212 354 -4032
2022-05-24 22:34:30 GMT 50.788193 8.322515 28,400 212 354 -4288
2022-05-24 22:34:29 GMT 50.790939 8.325336 28,525 213 355 -4416
2022-05-24 22:34:27 GMT 50.791718 8.326152 28,625 216 355 -4480
2022-05-24 22:34:24 GMT 50.796173 8.331223 28,825 218 355 -4416
2022-05-24 22:34:23 GMT 50.799850 8.335800 29,025 220 356 -4224
2022-05-24 22:34:20 GMT 50.803894 8.341295 29,200 224 357 -3776
2022-05-24 22:34:18 GMT 50.803894 8.341295 29,250 224 357 -3776
2022-05-24 22:34:17 GMT 50.805267 8.343225 29,325 224 357 -3776
2022-05-24 22:34:14 GMT 50.809341 8.349535 29,500 227 359 -3776
2022-05-24 22:34:12 GMT 50.810944 8.352133 29,625 227 360 -3840
2022-05-24 22:34:10 GMT 50.812958 8.355622 29,675 229 360 -3840
2022-05-24 22:34:08 GMT 50.816189 8.361511 30,050 231 362 -3968
2022-05-24 22:34:05 GMT 50.818703 8.366547 30,075 233 363 -4160
2022-05-24 22:34:02 GMT 50.821243 8.372027 30,275 236 363 -4608
2022-05-24 22:34:01 GMT 50.822754 8.375368 30,400 238 365 -4736
2022-05-24 22:33:58 GMT 50.824894 8.380585 30,575 238 365 -4736
2022-05-24 22:33:57 GMT 50.826199 8.384018 30,700 240 364 -4736
2022-05-24 22:33:55 GMT 50.827606 8.387839 30,775 240 365 -4672
2022-05-24 22:33:54 GMT 50.828751 8.391031 30,975 242 366 -4672
2022-05-24 22:33:53 GMT 50.829178 8.392334 31,075 243 366 -4672
2022-05-24 22:33:51 GMT 50.830994 8.397934 32,325 245 367 -4544
2022-05-24 22:33:50 GMT 50.831738 8.400421 32,325 249 369 -3968
2022-05-24 22:33:48 GMT 50.833237 8.405506 31,400 248 369 -4288
2022-05-24 22:33:47 GMT 50.833878 8.407881 31,450 248 369 -4224
2022-05-24 22:33:46 GMT 50.834244 8.409366 31,500 248 369 -4096
2022-05-24 22:33:44 GMT 50.835556 8.414459 31,625 250 371 -3840
2022-05-24 22:33:42 GMT 50.837860 8.424509 31,850 252 374 -3392
2022-05-24 22:33:40 GMT 50.837860 8.424509 31,875 252 374 -3264
2022-05-24 22:33:38 GMT 50.838955 8.429947 31,975 254 377 -2944
2022-05-24 22:33:37 GMT 50.839512 8.432922 32,025 255 379 -2688
2022-05-24 22:33:36 GMT 50.840073 8.435822 32,075 255 379 -2624
2022-05-24 22:33:34 GMT 50.840927 8.441212 32,175 257 382 -2304
2022-05-24 22:33:32 GMT 50.841793 8.446960 32,225 257 383 -2240
2022-05-24 22:33:30 GMT 50.842541 8.452301 32,325 260 389 -2048
2022-05-24 22:33:28 GMT 50.843216 8.457914 32,600 261 390 -2240
2022-05-24 22:33:26 GMT 50.843983 8.465652 32,500 263 394 -2560
2022-05-24 22:33:24 GMT 50.844631 8.474503 32,600 264 397 -3008
2022-05-24 22:33:22 GMT 50.844631 8.474503 32,650 265 397 -3264
2022-05-24 22:33:20 GMT 50.845093 8.484192 32,825 267 399 -3712
2022-05-24 22:33:19 GMT 50.845093 8.484192 32,850 268 400 -3840
2022-05-24 22:33:18 GMT 50.845139 8.485899 32,875 268 400 -3904
2022-05-24 22:33:16 GMT 50.845238 8.492813 33,025 270 402 -3776
2022-05-24 22:33:14 GMT 50.845238 8.501740 33,200 272 405 -2816
2022-05-24 22:33:12 GMT 50.845192 8.504333 33,250 273 406 -2432
2022-05-24 22:33:11 GMT 50.845100 8.507080 33,300 273 407 -2176
2022-05-24 22:33:08 GMT 50.844818 8.516083 33,400 274 409 -1856
2022-05-24 22:33:07 GMT 50.844315 8.525168 33,475 276 412 -1984
2022-05-24 22:33:05 GMT 50.844315 8.525168 33,500 277 415 -2176
2022-05-24 22:33:04 GMT 50.843700 8.533401 33,625 279 417 -2880
2022-05-24 22:33:01 GMT 50.843353 8.537119 33,675 280 419 -3520
2022-05-24 22:32:57 GMT 50.840790 8.557310 34,150 284 419 -4352
2022-05-24 22:32:53 GMT 50.840164 8.561554 34,275 284 419 -4288
2022-05-24 22:32:52 GMT 50.839920 8.563249 34,300 284 419 -4160
2022-05-24 22:32:51 GMT 50.838776 8.570524 34,475 285 418 -4224
2022-05-24 22:32:48 GMT 50.838089 8.574755 34,575 284 418 -4032
2022-05-24 22:32:47 GMT 50.837650 8.577576 34,650 284 418 -4032
2022-05-24 22:32:46 GMT 50.836998 8.581772 34,750 284 418 -3840
2022-05-24 22:32:45 GMT 50.836533 8.584518 34,800 284 417 -3456
2022-05-24 22:32:43 GMT 50.835602 8.590775 34,925 284 418 -3008
2022-05-24 22:32:41 GMT 50.834995 8.594513 34,975 284 419 -2752
2022-05-24 22:32:40 GMT 50.834579 8.597488 35,025 284 420 -2688
2022-05-24 22:32:39 GMT 50.833229 8.606262 35,125 284 421 -2752
2022-05-24 22:32:38 GMT 50.833229 8.606262 35,150 284 422 -3264
2022-05-24 22:32:37 GMT 50.832825 8.608976 35,200 284 422 -3264
2022-05-24 22:32:36 GMT 50.832390 8.611908 35,275 284 422 -3648
2022-05-24 22:32:33 GMT 50.831406 8.618923 35,400 283 421 -4608
2022-05-24 22:32:31 GMT 50.830170 8.627385 35,700 283 418 -5696
2022-05-24 22:32:29 GMT 50.829365 8.633270 35,800 283 416 -5824
2022-05-24 22:32:27 GMT 50.828568 8.638743 36,075 283 410 -6208
2022-05-24 22:32:26 GMT 50.828156 8.641564 36,175 283 408 -6144
2022-05-24 22:32:24 GMT 50.827408 8.647003 36,375 283 405 -5888
2022-05-24 22:32:23 GMT 50.827038 8.649673 36,575 283 404 -5632
2022-05-24 22:32:21 GMT 50.826141 8.655742 36,650 283 402 -5056
2022-05-24 22:32:20 GMT 50.825729 8.658489 36,725 283 401 -4928
2022-05-24 22:32:18 GMT 50.824802 8.665009 36,950 284 399 -4416
2022-05-24 22:32:17 GMT 50.824539 8.666506 36,950 284 398 -4160
2022-05-24 22:32:16 GMT 50.824104 8.669586 37,050 284 398 -4032
2022-05-24 22:32:14 GMT 50.823257 8.675413 37,200 284 397 -3456
2022-05-24 22:32:13 GMT 50.822754 8.678605 37,200 284 397 -3264
2022-05-24 22:32:11 GMT 50.821869 8.684616 37,325 284 395 -2688
2022-05-24 22:32:10 GMT 50.821449 8.687363 37,350 284 395 -2560
2022-05-24 22:32:09 GMT 50.821030 8.690186 37,400 284 395 -2496
2022-05-24 22:32:07 GMT 50.820557 8.693378 37,475 284 395 -2304
2022-05-24 22:32:06 GMT 50.820099 8.696289 37,500 284 395 -2176
2022-05-24 22:32:04 GMT 50.819229 8.701914 37,550 284 395 -1984
2022-05-24 22:32:02 GMT 50.818680 8.705700 37,725 284 395 -1920
2022-05-24 22:32:01 GMT 50.817959 8.710327 37,675 284 394 -1856
2022-05-24 22:32:00 GMT 50.817535 8.713123 37,750 284 394 -1664
2022-05-24 22:31:58 GMT 50.816841 8.717575 37,725 284 394 -1728
2022-05-24 22:31:56 GMT 50.814423 8.733673 38,000 284 394 -960
2022-05-24 22:31:51 GMT 50.812607 8.745880 37,950 284 394 -1024
2022-05-24 22:31:47 GMT 50.812180 8.748829 37,950 284 394 -960
2022-05-24 22:31:45 GMT 50.810791 8.758087 38,000 284 395 64
2022-05-24 22:31:42 GMT 50.809708 8.765234 38,000 284 395 64
2022-05-24 22:31:39 GMT 50.808697 8.772125 38,000 284 396 64
2022-05-24 22:31:36 GMT 50.805542 8.793145 38,000 284 396 0
2022-05-24 22:31:33 GMT 50.805542 8.793145 38,000 284 397 0
2022-05-24 22:31:30 GMT 50.804718 8.798638 38,000 284 400 -64
2022-05-24 22:31:28 GMT 50.803619 8.806000 38,000 284 399 0
2022-05-24 22:31:25 GMT 50.802597 8.812943 38,000 284 400 -64
2022-05-24 22:31:22 GMT 50.801102 8.822838 38,000 284 403 -64
2022-05-24 22:31:19 GMT 50.800037 8.829727 38,025 284 403 -64
2022-05-24 22:31:16 GMT 50.797195 8.848419 38,025 284 405 0
2022-05-24 22:31:13 GMT 50.796295 8.854164 38,025 284 407 -64
2022-05-24 22:31:10 GMT 50.796295 8.854164 38,025 284 407 -64
2022-05-24 22:31:08 GMT 50.794739 8.864185 38,025 284 409 -64
2022-05-24 22:31:05 GMT 50.793892 8.869934 38,025 284 411 -64
2022-05-24 22:31:03 GMT 50.792915 8.876190 38,025 284 412 -128
2022-05-24 22:31:00 GMT 50.791397 8.885935 38,025 284 415 -256
2022-05-24 22:30:57 GMT 50.790356 8.892670 38,050 284 416 -256
2022-05-24 22:30:55 GMT 50.789291 8.899668 38,050 284 418 -256
2022-05-24 22:30:53 GMT 50.788467 8.905013 38,050 284 420 -128
2022-05-24 22:30:50 GMT 50.786911 8.915257 38,050 284 420 0
2022-05-24 22:30:47 GMT 50.784676 8.929825 38,050 284 420 0
2022-05-24 22:30:43 GMT 50.783936 8.934483 38,050 284 420 0
2022-05-24 22:30:40 GMT 50.782486 8.943939 38,050 284 421 0
2022-05-24 22:30:37 GMT 50.781143 8.952670 38,050 284 421 0
2022-05-24 22:30:35 GMT 50.779835 8.961182 38,050 284 421 0
2022-05-24 22:30:32 GMT 50.778950 8.967133 38,050 284 421 0
2022-05-24 22:30:29 GMT 50.777573 8.976275 38,050 284 421 64
2022-05-24 22:30:27 GMT 50.775467 8.989934 38,050 284 421 0
2022-05-24 22:30:25 GMT 50.775467 8.989934 38,050 284 422 64
2022-05-24 22:30:22 GMT 50.774002 8.999362 38,025 284 421 64
2022-05-24 22:30:19 GMT 50.772858 9.006933 38,050 284 421 64
2022-05-24 22:30:17 GMT 50.771919 9.013062 38,050 284 421 64
2022-05-24 22:30:15 GMT 50.770935 9.019182 38,050 284 421 64
2022-05-24 22:30:13 GMT 50.768894 9.032364 38,025 284 421 64
2022-05-24 22:30:10 GMT 50.768894 9.032364 38,025 284 421 64
2022-05-24 22:30:07 GMT 50.767357 9.042511 38,025 284 421 0
2022-05-24 22:30:05 GMT 50.766426 9.048386 38,025 284 421 64
2022-05-24 22:30:03 GMT 50.765541 9.054031 38,025 284 421 64
2022-05-24 22:30:00 GMT 50.764145 9.062881 38,025 284 421 64
2022-05-24 22:29:58 GMT 50.763107 9.069511 38,025 284 421 64
2022-05-24 22:29:56 GMT 50.762375 9.074187 38,025 284 420 64
2022-05-24 22:29:54 GMT 50.759815 9.090424 38,025 284 420 64
2022-05-24 22:29:51 GMT 50.759815 9.090424 38,025 284 420 64
2022-05-24 22:29:48 GMT 50.758141 9.101334 38,025 284 420 64
2022-05-24 22:29:45 GMT 50.757114 9.107819 38,025 284 420 64
2022-05-24 22:29:42 GMT 50.754730 9.123032 38,000 284 420 128
2022-05-24 22:29:39 GMT 50.754227 9.126298 38,000 284 420 128
2022-05-24 22:29:37 GMT 50.753494 9.130901 38,000 284 420 128
2022-05-24 22:29:35 GMT 50.752304 9.138621 38,000 284 420 128
2022-05-24 22:29:33 GMT 50.751343 9.144708 37,975 284 420 128
2022-05-24 22:29:30 GMT 50.750244 9.151834 38,000 284 420 128
2022-05-24 22:29:27 GMT 50.749100 9.159035 37,975 284 420 128
2022-05-24 22:29:25 GMT 50.747711 9.167938 37,975 284 420 64
2022-05-24 22:29:21 GMT 50.746174 9.177856 37,975 284 420 0
2022-05-24 22:29:19 GMT 50.745026 9.185238 37,975 284 420 0
2022-05-24 22:29:15 GMT 50.741428 9.208374 37,975 284 417 0
2022-05-24 22:29:12 GMT 50.741428 9.208374 37,975 284 418 0
2022-05-24 22:29:09 GMT 50.740723 9.213075 37,975 284 419 0
2022-05-24 22:29:07 GMT 50.739891 9.218292 37,975 284 418 0
2022-05-24 22:29:05 GMT 50.738495 9.227371 37,975 284 418 0
2022-05-24 22:29:02 GMT 50.737152 9.236013 37,975 284 418 0
2022-05-24 22:28:59 GMT 50.735825 9.244550 37,975 284 417 0
2022-05-24 22:28:56 GMT 50.734451 9.253458 37,975 284 417 0
2022-05-24 22:28:54 GMT 50.733513 9.259567 37,975 284 417 0
2022-05-24 22:28:51 GMT 50.732349 9.266891 37,975 284 416 0
2022-05-24 22:28:48 GMT 50.731201 9.274465 37,975 284 416 0
2022-05-24 22:28:46 GMT 50.730255 9.280548 37,975 284 416 0
2022-05-24 22:28:44 GMT 50.729229 9.286957 37,975 284 416 0
2022-05-24 22:28:41 GMT 50.727600 9.297409 37,975 284 417 0
2022-05-24 22:28:38 GMT 50.726486 9.304678 37,975 284 416 0
2022-05-24 22:28:36 GMT 50.725525 9.310690 37,975 284 416 0
2022-05-24 22:28:34 GMT 50.722992 9.327011 37,975 284 416 0
2022-05-24 22:28:31 GMT 50.722992 9.327011 37,975 284 412 0
2022-05-24 22:28:28 GMT 50.721783 9.334717 37,975 284 416 64
2022-05-24 22:28:26 GMT 50.720806 9.340820 37,975 284 416 64
2022-05-24 22:28:24 GMT 50.719921 9.346619 37,975 284 416 64
2022-05-24 22:28:21 GMT 50.718109 9.357902 37,950 285 416 0
2022-05-24 22:28:18 GMT 50.717148 9.364137 37,950 285 415 0
2022-05-24 22:28:16 GMT 50.716187 9.370150 37,950 285 415 0
2022-05-24 22:28:13 GMT 50.714565 9.380341 37,975 285 415 0
2022-05-24 22:28:10 GMT 50.713120 9.389376 37,950 285 415 64
2022-05-24 22:28:07 GMT 50.711975 9.396577 37,950 285 415 64
2022-05-24 22:28:04 GMT 50.710648 9.404816 37,950 285 415 64
2022-05-24 22:28:01 GMT 50.709213 9.413757 37,950 285 415 64
2022-05-24 22:27:58 GMT 50.707809 9.422781 37,950 284 415 0
2022-05-24 22:27:56 GMT 50.706886 9.428635 37,950 284 415 64
2022-05-24 22:27:54 GMT 50.705063 9.440077 37,950 284 415 0
2022-05-24 22:27:52 GMT 50.705063 9.440077 37,950 284 415 0
2022-05-24 22:27:49 GMT 50.703506 9.449950 37,950 284 414 0
2022-05-24 22:27:47 GMT 50.702545 9.456185 37,950 284 415 0
2022-05-24 22:27:45 GMT 50.701767 9.460862 37,950 284 414 0
2022-05-24 22:27:42 GMT 50.700367 9.469910 37,950 285 414 0
2022-05-24 22:27:39 GMT 50.699112 9.477638 37,950 284 414 0
2022-05-24 22:27:37 GMT 50.697968 9.485061 37,950 285 413 0
2022-05-24 22:27:34 GMT 50.696320 9.495231 37,950 285 413 -64
2022-05-24 22:27:31 GMT 50.694969 9.503784 37,950 285 413 -64
2022-05-24 22:27:28 GMT 50.692749 9.518094 37,950 285 413 0
2022-05-24 22:27:26 GMT 50.692749 9.518094 37,975 284 413 0
2022-05-24 22:27:24 GMT 50.691803 9.523849 37,975 284 413 0
2022-05-24 22:27:21 GMT 50.689426 9.539108 37,950 284 412 0
2022-05-24 22:27:18 GMT 50.689426 9.539108 37,975 284 412 0
2022-05-24 22:27:16 GMT 50.687519 9.551315 37,975 284 412 0
2022-05-24 22:27:12 GMT 50.686569 9.557140 37,950 284 412 0
2022-05-24 22:27:09 GMT 50.684509 9.570280 37,975 284 412 0
2022-05-24 22:27:06 GMT 50.683868 9.574362 37,975 284 412 0
2022-05-24 22:27:04 GMT 50.682495 9.583196 37,950 284 412 0
2022-05-24 22:27:01 GMT 50.681168 9.591584 37,975 284 412 0
2022-05-24 22:26:57 GMT 50.679703 9.601086 37,975 284 411 0
2022-05-24 22:26:54 GMT 50.678581 9.608231 37,975 284 411 0
2022-05-24 22:26:52 GMT 50.677322 9.616081 37,975 284 411 -64
2022-05-24 22:26:49 GMT 50.675648 9.626923 37,975 284 411 0
2022-05-24 22:26:47 GMT 50.674896 9.631595 37,975 284 411 0
2022-05-24 22:26:44 GMT 50.673752 9.638721 37,975 284 411 0
2022-05-24 22:26:42 GMT 50.672470 9.646961 37,975 284 411 0
2022-05-24 22:26:39 GMT 50.671551 9.652710 37,975 284 411 0
2022-05-24 22:26:37 GMT 50.670387 9.659877 37,975 284 411 -64
2022-05-24 22:26:34 GMT 50.669266 9.667029 37,975 284 411 -64
2022-05-24 22:26:32 GMT 50.667362 9.679104 37,975 284 411 -64
2022-05-24 22:26:30 GMT 50.667362 9.679104 37,975 284 412 -128
2022-05-24 22:26:27 GMT 50.666199 9.686400 38,000 284 412 -128
2022-05-24 22:26:25 GMT 50.665237 9.692688 38,000 284 412 -128
2022-05-24 22:26:23 GMT 50.663681 9.702373 38,000 284 412 -64
2022-05-24 22:26:19 GMT 50.662243 9.711617 38,000 285 411 0
2022-05-24 22:26:16 GMT 50.661118 9.718708 38,000 285 412 -64
2022-05-24 22:26:14 GMT 50.660019 9.725502 38,000 285 412 -64
2022-05-24 22:26:11 GMT 50.656952 9.744801 38,000 285 412 -64
2022-05-24 22:26:08 GMT 50.656952 9.744801 38,025 285 412 0
2022-05-24 22:26:06 GMT 50.656494 9.747620 38,025 285 412 -64
2022-05-24 22:26:04 GMT 50.655308 9.755191 38,000 285 412 -64
2022-05-24 22:26:02 GMT 50.654560 9.759719 38,000 285 412 -64
2022-05-24 22:25:59 GMT 50.653198 9.768436 38,025 285 412 0
2022-05-24 22:25:56 GMT 50.650726 9.783614 38,025 285 412 0
2022-05-24 22:25:54 GMT 50.650726 9.783614 38,025 285 412 -64
2022-05-24 22:25:51 GMT 50.649261 9.792866 38,025 285 412 -64
2022-05-24 22:25:48 GMT 50.647842 9.801901 38,025 285 412 0
2022-05-24 22:25:45 GMT 50.646561 9.809707 38,025 285 412 0
2022-05-24 22:25:43 GMT 50.645370 9.817224 38,025 285 412 0
2022-05-24 22:25:40 GMT 50.643993 9.825712 38,025 285 412 0
2022-05-24 22:25:37 GMT 50.642365 9.835881 38,025 285 412 0
2022-05-24 22:25:34 GMT 50.641155 9.843305 38,025 285 412 0
2022-05-24 22:25:32 GMT 50.640335 9.848520 38,025 285 412 64
2022-05-24 22:25:29 GMT 50.638920 9.857038 38,025 285 413 64
2022-05-24 22:25:26 GMT 50.637451 9.866012 38,000 285 414 64
2022-05-24 22:25:23 GMT 50.635986 9.875002 38,000 285 414 64
2022-05-24 22:25:21 GMT 50.635300 9.879456 38,000 285 414 64
2022-05-24 22:25:18 GMT 50.633698 9.889213 38,000 285 414 64
2022-05-24 22:25:15 GMT 50.632462 9.896730 38,025 285 414 64
2022-05-24 22:25:13 GMT 50.631271 9.903958 38,000 285 414 64
2022-05-24 22:25:10 GMT 50.629562 9.914419 38,000 285 414 64
2022-05-24 22:25:07 GMT 50.628891 9.918341 38,000 285 414 64
2022-05-24 22:25:05 GMT 50.627563 9.926364 38,000 285 414 64
2022-05-24 22:25:03 GMT 50.626602 9.932219 38,000 285 414 64
2022-05-24 22:25:00 GMT 50.625320 9.939880 38,000 285 414 64
2022-05-24 22:24:57 GMT 50.623947 9.948120 38,000 285 414 64
2022-05-24 22:24:55 GMT 50.622711 9.955493 38,000 285 414 64
2022-05-24 22:24:52 GMT 50.621414 9.963189 37,975 285 414 64
2022-05-24 22:24:49 GMT 50.619873 9.972406 37,975 285 415 0
2022-05-24 22:24:46 GMT 50.617458 9.986869 37,975 285 415 0
2022-05-24 22:24:44 GMT 50.617458 9.986869 37,975 285 415 0
2022-05-24 22:24:41 GMT 50.615570 9.998354 37,975 285 415 0
2022-05-24 22:24:37 GMT 50.612759 10.015448 37,975 285 415 0
2022-05-24 22:24:33 GMT 50.610661 10.028068 37,975 285 415 0
2022-05-24 22:24:30 GMT 50.610661 10.028068 38,000 285 415 0
2022-05-24 22:24:27 GMT 50.608932 10.038613 38,000 285 415 0
2022-05-24 22:24:24 GMT 50.607731 10.045809 38,000 285 415 0
2022-05-24 22:24:21 GMT 50.605030 10.062437 38,000 285 415 0
2022-05-24 22:24:18 GMT 50.605030 10.062437 38,000 285 414 0
2022-05-24 22:24:15 GMT 50.603073 10.074166 37,975 285 414 0
2022-05-24 22:24:12 GMT 50.601974 10.081040 37,975 285 414 0
2022-05-24 22:24:09 GMT 50.600792 10.088344 38,000 285 414 0
2022-05-24 22:24:06 GMT 50.597721 10.107051 38,000 285 414 -64
2022-05-24 22:24:03 GMT 50.597721 10.107051 38,000 285 414 -64
2022-05-24 22:24:00 GMT 50.596344 10.115445 38,000 285 414 -64
2022-05-24 22:23:57 GMT 50.593414 10.133442 38,000 285 414 -64
2022-05-24 22:23:54 GMT 50.592182 10.141049 38,025 285 414 -64
2022-05-24 22:23:52 GMT 50.592182 10.141049 38,025 285 414 -64
2022-05-24 22:23:49 GMT 50.591217 10.146741 38,025 285 414 -64
2022-05-24 22:23:46 GMT 50.589436 10.157900 38,025 285 414 0
2022-05-24 22:23:42 GMT 50.586639 10.174930 38,025 285 414 0
2022-05-24 22:23:38 GMT 50.585941 10.179204 38,025 285 414 0
2022-05-24 22:23:36 GMT 50.585056 10.184623 38,025 285 414 0
2022-05-24 22:23:33 GMT 50.582127 10.202513 38,025 285 414 0
2022-05-24 22:23:30 GMT 50.582127 10.202513 38,025 285 414 0
2022-05-24 22:23:27 GMT 50.580597 10.211720 38,025 285 414 0
2022-05-24 22:23:25 GMT 50.579563 10.218102 38,025 285 414 0
2022-05-24 22:23:23 GMT 50.577118 10.232897 38,025 285 414 0
2022-05-24 22:23:20 GMT 50.577118 10.232897 38,025 285 414 0
2022-05-24 22:23:17 GMT 50.575607 10.242149 38,025 285 414 0
2022-05-24 22:23:14 GMT 50.574444 10.249205 38,025 285 414 0
2022-05-24 22:23:12 GMT 50.573559 10.254327 38,025 285 414 0
2022-05-24 22:23:09 GMT 50.570675 10.271846 38,025 285 414 0
2022-05-24 22:23:06 GMT 50.570675 10.271846 38,025 285 414 0
2022-05-24 22:23:04 GMT 50.569290 10.280023 38,025 285 414 0
2022-05-24 22:23:02 GMT 50.568604 10.284070 38,025 285 414 0
2022-05-24 22:22:59 GMT 50.566856 10.294635 38,025 285 414 0
2022-05-24 22:22:56 GMT 50.565739 10.301167 38,025 285 414 64
2022-05-24 22:22:54 GMT 50.564758 10.307055 38,025 285 414 64
2022-05-24 22:22:52 GMT 50.563843 10.312548 38,025 285 415 0
2022-05-24 22:22:49 GMT 50.561966 10.323896 38,025 285 415 0
2022-05-24 22:22:46 GMT 50.560574 10.332048 38,025 285 415 64
2022-05-24 22:22:44 GMT 50.559814 10.336617 38,025 285 415 64
2022-05-24 22:22:42 GMT 50.558853 10.342327 38,025 285 415 64
2022-05-24 22:22:39 GMT 50.557159 10.352590 38,025 285 415 0
2022-05-24 22:22:36 GMT 50.555546 10.362037 38,000 285 415 0
2022-05-24 22:22:33 GMT 50.554195 10.370351 38,000 285 415 0
2022-05-24 22:22:30 GMT 50.553123 10.376661 38,000 285 415 0
2022-05-24 22:22:27 GMT 50.551529 10.386200 38,000 285 415 0
2022-05-24 22:22:23 GMT 50.548607 10.403682 38,000 285 415 0
2022-05-24 22:22:20 GMT 50.547684 10.409329 38,000 285 415 0
2022-05-24 22:22:16 GMT 50.545990 10.419448 38,000 285 415 0
2022-05-24 22:22:14 GMT 50.544464 10.428475 38,000 285 414 64
2022-05-24 22:22:12 GMT 50.543159 10.436121 38,000 285 415 64
2022-05-24 22:22:10 GMT 50.543159 10.436121 38,000 285 415 0
2022-05-24 22:22:07 GMT 50.541672 10.445103 38,000 285 415 0
2022-05-24 22:22:04 GMT 50.540321 10.453046 38,000 285 415 0
2022-05-24 22:22:02 GMT 50.539204 10.459652 38,000 285 415 0
2022-05-24 22:21:59 GMT 50.537903 10.467373 38,000 285 415 0
2022-05-24 22:21:56 GMT 50.535004 10.484643 38,000 285 414 64
2022-05-24 22:21:53 GMT 50.535004 10.484643 38,000 285 414 64
2022-05-24 22:21:51 GMT 50.533989 10.490756 38,000 285 414 64
2022-05-24 22:21:48 GMT 50.532547 10.499367 38,000 285 414 64
2022-05-24 22:21:45 GMT 50.530544 10.511095 37,975 285 415 64
2022-05-24 22:21:42 GMT 50.529800 10.515326 37,975 285 415 64
2022-05-24 22:21:39 GMT 50.528076 10.525719 37,975 285 414 64
2022-05-24 22:21:36 GMT 50.526306 10.536250 37,975 285 415 64
2022-05-24 22:21:33 GMT 50.525238 10.542347 37,975 285 415 64
2022-05-24 22:21:31 GMT 50.524155 10.548754 36,000 285 415 64
2022-05-24 22:21:28 GMT 50.522415 10.559018 37,975 285 415 64
2022-05-24 22:21:25 GMT 50.520996 10.567547 37,975 285 415 64
2022-05-24 22:21:22 GMT 50.518677 10.581022 37,975 286 414 64
2022-05-24 22:21:20 GMT 50.518677 10.581022 37,975 286 414 64
2022-05-24 22:21:17 GMT 50.517372 10.588668 37,950 286 414 64
2022-05-24 22:21:14 GMT 50.515511 10.599580 37,950 286 414 64
2022-05-24 22:21:11 GMT 50.513599 10.610714 37,950 285 414 0
2022-05-24 22:21:06 GMT 50.511646 10.622072 37,950 285 414 0
2022-05-24 22:21:04 GMT 50.510651 10.627827 37,950 285 414 0
2022-05-24 22:21:02 GMT 50.509876 10.632464 37,950 285 414 0
2022-05-24 22:21:00 GMT 50.509087 10.637067 37,950 285 414 0
2022-05-24 22:20:58 GMT 50.507584 10.645752 37,975 285 414 0
2022-05-24 22:20:55 GMT 50.505981 10.655148 37,950 285 413 0
2022-05-24 22:20:52 GMT 50.503189 10.671700 37,950 285 413 0
2022-05-24 22:20:49 GMT 50.503189 10.671700 36,000 285 413 0
2022-05-24 22:20:46 GMT 50.501732 10.680418 37,950 285 413 0
2022-05-24 22:20:44 GMT 50.499729 10.692221 37,950 285 413 0
2022-05-24 22:20:42 GMT 50.498051 10.702242 37,950 285 413 -64
2022-05-24 22:20:39 GMT 50.498051 10.702242 37,975 285 413 -64
2022-05-24 22:20:36 GMT 50.496964 10.708417 37,975 285 413 -64
2022-05-24 22:20:33 GMT 50.495537 10.717089 37,975 285 413 -64
2022-05-24 22:20:31 GMT 50.494049 10.725774 37,975 285 413 -64
2022-05-24 22:20:28 GMT 50.492790 10.733346 37,975 285 413 -64
2022-05-24 22:20:25 GMT 50.491653 10.739931 37,975 285 413 -64
2022-05-24 22:20:23 GMT 50.489227 10.754459 37,975 285 413 -64
2022-05-24 22:20:21 GMT 50.489227 10.754459 37,975 285 412 -64
2022-05-24 22:20:18 GMT 50.487995 10.761554 37,975 285 413 -64
2022-05-24 22:20:15 GMT 50.486786 10.768829 37,975 285 412 -64
2022-05-24 22:20:13 GMT 50.485996 10.773505 38,000 285 412 -64
2022-05-24 22:20:11 GMT 50.484783 10.780780 38,000 285 412 -128
2022-05-24 22:20:08 GMT 50.482967 10.791395 38,000 285 412 -128
2022-05-24 22:20:05 GMT 50.481903 10.797609 38,000 285 412 -64
2022-05-24 22:20:02 GMT 50.480129 10.808097 38,000 285 412 -128
2022-05-24 22:19:59 GMT 50.478081 10.820494 38,000 285 412 -128
2022-05-24 22:19:56 GMT 50.477291 10.825096 38,000 285 412 -64
2022-05-24 22:19:54 GMT 50.476776 10.828183 38,000 285 412 -64
2022-05-24 22:19:52 GMT 50.475475 10.835786 38,000 285 412 -64
2022-05-24 22:19:50 GMT 50.474545 10.841427 38,025 285 412 -64
2022-05-24 22:19:47 GMT 50.473114 10.849722 38,025 285 412 0
2022-05-24 22:19:44 GMT 50.471657 10.858426 38,025 285 412 0
2022-05-24 22:19:41 GMT 50.468903 10.874658 38,025 285 412 0
2022-05-24 22:19:38 GMT 50.468903 10.874658 38,025 285 412 0
2022-05-24 22:19:35 GMT 50.466072 10.891534 38,025 285 412 0
2022-05-24 22:19:32 GMT 50.466072 10.891534 38,025 286 413 0
2022-05-24 22:19:30 GMT 50.465012 10.897498 38,025 286 413 0
2022-05-24 22:19:27 GMT 50.463371 10.907271 38,025 286 413 0
2022-05-24 22:19:24 GMT 50.461880 10.915956 38,025 286 413 0
2022-05-24 22:19:22 GMT 50.459740 10.928279 38,025 286 413 0
2022-05-24 22:19:20 GMT 50.459740 10.928279 38,025 286 414 0
2022-05-24 22:19:18 GMT 50.458946 10.933030 38,025 286 413 0
2022-05-24 22:19:15 GMT 50.456955 10.944479 38,025 286 414 0
2022-05-24 22:19:12 GMT 50.455784 10.951291 38,025 286 414 0
2022-05-24 22:19:10 GMT 50.454803 10.956784 38,025 286 414 0
2022-05-24 22:19:07 GMT 50.453316 10.965617 38,025 286 414 0
2022-05-24 22:19:04 GMT 50.451736 10.974836 38,025 286 414 0
2022-05-24 22:19:02 GMT 50.450661 10.980983 38,025 286 414 0
2022-05-24 22:19:00 GMT 50.449265 10.989000 38,025 286 414 0
2022-05-24 22:18:57 GMT 50.448303 10.994712 38,025 286 414 0
2022-05-24 22:18:54 GMT 50.446838 11.003169 38,025 286 414 0
2022-05-24 22:18:51 GMT 50.445213 11.012458 38,025 286 415 0
2022-05-24 22:18:48 GMT 50.443680 11.021291 38,025 286 415 0
2022-05-24 22:18:45 GMT 50.442352 11.029262 38,025 286 415 0
2022-05-24 22:18:43 GMT 50.441303 11.035173 38,025 286 415 0
2022-05-24 22:18:41 GMT 50.438919 11.048849 38,025 286 415 0
2022-05-24 22:18:38 GMT 50.438919 11.048849 38,025 286 415 0
2022-05-24 22:18:36 GMT 50.438141 11.053330 38,025 286 415 -64
2022-05-24 22:18:33 GMT 50.436417 11.063455 38,025 286 415 0
2022-05-24 22:18:31 GMT 50.435715 11.067497 38,025 286 415 -64
2022-05-24 22:18:29 GMT 50.434414 11.074813 38,025 286 415 0
2022-05-24 22:18:26 GMT 50.432693 11.084834 38,050 286 415 0
2022-05-24 22:18:23 GMT 50.431202 11.093222 38,050 286 415 0
2022-05-24 22:18:21 GMT 50.430412 11.097973 38,050 286 416 0
2022-05-24 22:18:19 GMT 50.429169 11.104937 38,050 286 415 0
2022-05-24 22:18:16 GMT 50.427612 11.114044 38,050 286 415 0
2022-05-24 22:18:13 GMT 50.426128 11.122544 38,050 286 415 0
2022-05-24 22:18:11 GMT 50.425526 11.125810 38,050 286 415 0
2022-05-24 22:18:09 GMT 50.422825 11.141324 38,050 286 415 64
2022-05-24 22:18:06 GMT 50.422825 11.141324 38,025 286 415 64
2022-05-24 22:18:03 GMT 50.421055 11.151568 38,025 286 415 64
2022-05-24 22:18:01 GMT 50.419785 11.158640 38,025 286 416 0
2022-05-24 22:17:58 GMT 50.418449 11.166266 38,050 286 416 0
2022-05-24 22:17:55 GMT 50.417236 11.173170 38,025 286 416 0
2022-05-24 22:17:52 GMT 50.415482 11.183070 38,025 286 416 0
2022-05-24 22:17:50 GMT 50.414257 11.190095 38,025 286 416 64
2022-05-24 22:17:47 GMT 50.412724 11.198854 38,025 286 416 64
2022-05-24 22:17:44 GMT 50.411224 11.207356 38,025 286 416 64
2022-05-24 22:17:42 GMT 50.410446 11.211620 38,025 286 415 64
2022-05-24 22:17:40 GMT 50.408981 11.220004 38,025 286 415 64
2022-05-24 22:17:37 GMT 50.405598 11.239311 38,000 286 415 128
2022-05-24 22:17:33 GMT 50.405598 11.239311 38,025 286 415 128
2022-05-24 22:17:31 GMT 50.404575 11.244878 38,025 286 415 64
2022-05-24 22:17:28 GMT 50.403397 11.251735 38,000 286 415 0
2022-05-24 22:17:25 GMT 50.401363 11.263288 38,000 286 415 64
2022-05-24 22:17:22 GMT 50.400433 11.268632 38,000 286 416 64
2022-05-24 22:17:20 GMT 50.399414 11.274430 38,000 286 416 64
2022-05-24 22:17:17 GMT 50.397362 11.286002 38,000 286 416 64
2022-05-24 22:17:14 GMT 50.396336 11.291867 38,000 286 416 64
2022-05-24 22:17:12 GMT 50.395126 11.298548 38,000 286 416 64
2022-05-24 22:17:09 GMT 50.393265 11.309163 38,000 286 416 64
2022-05-24 22:17:06 GMT 50.391861 11.317074 38,000 286 415 64
2022-05-24 22:17:02 GMT 50.390099 11.326979 37,975 286 415 64
2022-05-24 22:17:00 GMT 50.388561 11.335589 37,975 286 415 64
2022-05-24 22:16:57 GMT 50.387466 11.341577 37,975 286 415 64
2022-05-24 22:16:54 GMT 50.385910 11.350467 37,975 286 415 64
2022-05-24 22:16:51 GMT 50.382694 11.368623 37,975 286 415 64
2022-05-24 22:16:48 GMT 50.382694 11.368623 37,975 286 415 0
2022-05-24 22:16:45 GMT 50.381626 11.374487 37,975 286 415 0
2022-05-24 22:16:42 GMT 50.379669 11.385548 37,975 286 415 0
2022-05-24 22:16:39 GMT 50.377853 11.395717 37,975 286 415 0
2022-05-24 22:16:36 GMT 50.376480 11.403519 37,975 286 415 0
2022-05-24 22:16:32 GMT 50.374641 11.413756 37,975 286 414 0
2022-05-24 22:16:30 GMT 50.373711 11.419249 37,975 286 414 0
2022-05-24 22:16:27 GMT 50.371990 11.428825 37,975 286 414 0
2022-05-24 22:16:24 GMT 50.369888 11.440671 37,975 286 414 0
2022-05-24 22:16:19 GMT 50.366447 11.460002 37,975 286 414 0
2022-05-24 22:16:14 GMT 50.365631 11.464667 37,975 286 414 0
2022-05-24 22:16:12 GMT 50.363068 11.478906 37,975 286 413 0
2022-05-24 22:16:10 GMT 50.363068 11.478906 38,025 286 413 -64
2022-05-24 22:16:07 GMT 50.361465 11.487941 37,975 286 413 0
2022-05-24 22:16:04 GMT 50.360489 11.493481 37,975 286 413 0
2022-05-24 22:16:02 GMT 50.359047 11.501424 37,975 286 413 0
2022-05-24 22:16:00 GMT 50.358349 11.505358 37,975 286 413 0
2022-05-24 22:15:58 GMT 50.356812 11.513969 37,975 286 413 -64
2022-05-24 22:15:54 GMT 50.354050 11.529645 37,975 286 413 -64
2022-05-24 22:15:52 GMT 50.354050 11.529645 37,975 286 413 -64
2022-05-24 22:15:50 GMT 50.353088 11.535066 37,975 286 412 -64
2022-05-24 22:15:47 GMT 50.351551 11.543662 38,000 286 413 -64
2022-05-24 22:15:44 GMT 50.350250 11.551085 37,975 286 412 -64
2022-05-24 22:15:42 GMT 50.348015 11.563482 38,000 286 413 -64
2022-05-24 22:15:38 GMT 50.346542 11.571784 38,000 286 413 -64
2022-05-24 22:15:35 GMT 50.345547 11.577511 38,000 286 413 -64
2022-05-24 22:15:32 GMT 50.343918 11.586642 38,000 286 413 -64
2022-05-24 22:15:30 GMT 50.342926 11.592311 38,000 286 412 -64
2022-05-24 22:15:27 GMT 50.340958 11.603153 38,000 286 412 0
2022-05-24 22:15:24 GMT 50.339630 11.610597 38,000 286 411 -64
2022-05-24 22:15:21 GMT 50.338165 11.618982 38,000 286 412 -64
2022-05-24 22:15:19 GMT 50.337387 11.623391 38,000 286 411 -64
2022-05-24 22:15:16 GMT 50.334606 11.638975 38,025 286 412 -64
2022-05-24 22:15:13 GMT 50.332977 11.648180 38,025 286 413 -64
2022-05-24 22:15:11 GMT 50.332977 11.648180 38,025 286 413 -64
2022-05-24 22:15:09 GMT 50.332233 11.652263 38,025 286 412 -64
2022-05-24 22:15:06 GMT 50.329788 11.665818 38,025 286 412 -64
2022-05-24 22:15:01 GMT 50.327950 11.676240 38,025 286 412 0
2022-05-24 22:14:59 GMT 50.325527 11.689453 38,025 286 412 0
2022-05-24 22:14:56 GMT 50.325527 11.689453 38,025 286 412 0
2022-05-24 22:14:53 GMT 50.323807 11.698955 38,025 286 412 0
2022-05-24 22:14:50 GMT 50.322601 11.705644 38,025 286 412 0
2022-05-24 22:14:48 GMT 50.321091 11.714028 38,025 286 412 0
2022-05-24 22:14:45 GMT 50.320084 11.719593 38,025 286 412 0
2022-05-24 22:14:43 GMT 50.318592 11.727757 38,025 286 412 0
2022-05-24 22:14:40 GMT 50.317337 11.734660 38,025 286 412 0
2022-05-24 22:14:38 GMT 50.316311 11.740302 38,025 286 412 0
2022-05-24 22:14:35 GMT 50.314262 11.751511 38,025 286 412 -64
2022-05-24 22:14:32 GMT 50.312531 11.761009 38,025 286 412 -64
2022-05-24 22:14:28 GMT 50.307953 11.786379 38,025 286 412 0
2022-05-24 22:14:23 GMT 50.307953 11.786379 38,025 286 412 -64
2022-05-24 22:14:20 GMT 50.307003 11.791671 38,025 286 412 -64
2022-05-24 22:14:18 GMT 50.305847 11.797943 38,025 286 412 -64
2022-05-24 22:14:15 GMT 50.304256 11.806888 38,025 286 412 0
2022-05-24 22:14:12 GMT 50.302368 11.817314 38,025 286 412 0
2022-05-24 22:14:10 GMT 50.301636 11.821289 38,025 286 412 0
2022-05-24 22:14:07 GMT 50.300392 11.828193 38,050 286 412 -64
2022-05-24 22:14:04 GMT 50.297791 11.842611 38,025 286 411 0
2022-05-24 22:14:00 GMT 50.296715 11.848532 38,050 286 411 0
2022-05-24 22:13:58 GMT 50.295456 11.855477 38,025 286 411 64
2022-05-24 22:13:55 GMT 50.293396 11.866752 38,025 286 411 64
2022-05-24 22:13:51 GMT 50.289688 11.887279 38,025 286 411 64
2022-05-24 22:13:48 GMT 50.289688 11.887279 38,025 286 411 64
2022-05-24 22:13:45 GMT 50.288864 11.891688 38,025 286 411 64
2022-05-24 22:13:43 GMT 50.287727 11.898045 38,025 286 411 64
2022-05-24 22:13:41 GMT 50.286438 11.905204 38,025 286 411 0
2022-05-24 22:13:38 GMT 50.285213 11.912001 38,025 286 411 0
2022-05-24 22:13:35 GMT 50.283554 11.921178 38,025 286 411 0
2022-05-24 22:13:33 GMT 50.282562 11.926476 38,025 286 412 0
2022-05-24 22:13:30 GMT 50.280655 11.937314 38,025 286 411 0
2022-05-24 22:13:27 GMT 50.279072 11.946073 38,025 286 411 0
2022-05-24 22:13:24 GMT 50.277859 11.952605 38,025 286 411 0
2022-05-24 22:13:21 GMT 50.275719 11.964631 38,025 286 411 0
2022-05-24 22:13:18 GMT 50.274788 11.969901 38,025 286 411 0
2022-05-24 22:13:15 GMT 50.272926 11.980071 38,025 286 411 0
2022-05-24 22:13:12 GMT 50.271809 11.986232 38,025 286 411 0
2022-05-24 22:13:09 GMT 50.270187 11.994974 38,025 286 410 0
2022-05-24 22:13:06 GMT 50.268688 12.003380 38,025 287 409 0
2022-05-24 22:13:03 GMT 50.267155 12.011694 38,025 287 409 64
2022-05-24 22:13:00 GMT 50.265572 12.020305 38,025 286 410 0
2022-05-24 22:12:58 GMT 50.264126 12.028173 38,025 286 410 0
2022-05-24 22:12:55 GMT 50.262634 12.036390 38,025 287 409 0
2022-05-24 22:12:53 GMT 50.261169 12.044268 38,025 287 409 0
2022-05-24 22:12:50 GMT 50.258698 12.057857 38,025 287 409 0
2022-05-24 22:12:47 GMT 50.257324 12.065373 38,025 287 409 64
2022-05-24 22:12:44 GMT 50.257324 12.065373 38,025 287 409 64
2022-05-24 22:12:42 GMT 50.256306 12.070931 38,025 287 409 64
2022-05-24 22:12:40 GMT 50.254677 12.079690 38,000 287 409 64
2022-05-24 22:12:37 GMT 50.253067 12.088430 38,000 287 409 64
2022-05-24 22:12:34 GMT 50.251511 12.096912 38,000 287 409 64
2022-05-24 22:12:31 GMT 50.250443 12.102628 38,000 287 409 64
2022-05-24 22:12:29 GMT 50.249222 12.109391 38,000 287 408 64
2022-05-24 22:12:26 GMT 50.247482 12.118715 38,000 287 408 64
2022-05-24 22:12:23 GMT 50.246300 12.125417 38,000 287 409 -64
2022-05-24 22:12:20 GMT 50.244530 12.134919 38,000 287 408 0
2022-05-24 22:12:17 GMT 50.242947 12.143604 38,000 287 408 0
2022-05-24 22:12:13 GMT 50.240753 12.155288 38,000 287 408 -64
2022-05-24 22:12:09 GMT 50.238476 12.167730 38,000 287 409 -64
2022-05-24 22:12:06 GMT 50.237408 12.173445 38,000 287 409 -64
2022-05-24 22:12:03 GMT 50.235264 12.184803 38,000 287 408 -64
2022-05-24 22:12:00 GMT 50.233124 12.196383 38,000 287 408 -64
2022-05-24 22:11:55 GMT 50.231552 12.204726 38,000 287 408 -64
2022-05-24 22:11:52 GMT 50.228050 12.223255 38,000 287 407 0
2022-05-24 22:11:49 GMT 50.228050 12.223255 38,000 287 407 0
2022-05-24 22:11:46 GMT 50.226151 12.233493 38,000 287 407 0
2022-05-24 22:11:43 GMT 50.224606 12.241813 38,000 287 407 0
2022-05-24 22:11:40 GMT 50.223587 12.247154 38,000 287 407 0
2022-05-24 22:11:38 GMT 50.220200 12.265440 38,000 287 407 0
2022-05-24 22:11:35 GMT 50.220200 12.265440 38,000 287 407 0
2022-05-24 22:11:32 GMT 50.218140 12.276282 38,000 287 407 0
2022-05-24 22:11:29 GMT 50.216225 12.286649 38,000 287 406 0
2022-05-24 22:11:26 GMT 50.216225 12.286649 38,000 287 406 0
2022-05-24 22:11:23 GMT 50.213562 12.300857 38,000 287 406 0
2022-05-24 22:11:21 GMT 50.213562 12.300857 38,000 287 406 0
2022-05-24 22:11:18 GMT 50.211990 12.309438 38,000 287 406 0
2022-05-24 22:11:15 GMT 50.210358 12.318131 38,000 287 406 -64
2022-05-24 22:11:12 GMT 50.208801 12.326299 38,000 287 406 -64
2022-05-24 22:11:09 GMT 50.207146 12.335197 38,000 287 406 -64
2022-05-24 22:11:06 GMT 50.205688 12.343212 38,000 287 406 0
2022-05-24 22:11:03 GMT 50.202850 12.358535 38,000 287 405 0
2022-05-24 22:11:00 GMT 50.202850 12.358535 38,000 287 405 0
2022-05-24 22:10:58 GMT 50.201202 12.367281 38,000 287 406 0
2022-05-24 22:10:55 GMT 50.199646 12.375737 38,000 287 406 0
2022-05-24 22:10:52 GMT 50.198673 12.380998 36,000 287 405 64
2022-05-24 22:10:49 GMT 50.196487 12.392801 38,000 287 405 64
2022-05-24 22:10:46 GMT 50.193558 12.408552 38,000 287 405 0
2022-05-24 22:10:43 GMT 50.191925 12.417149 38,000 287 404 -64
2022-05-24 22:10:40 GMT 50.191925 12.417149 38,000 287 405 0
2022-05-24 22:10:37 GMT 50.189484 12.429946 38,000 287 404 -64
2022-05-24 22:10:33 GMT 50.188477 12.435512 38,000 287 404 0
2022-05-24 22:10:30 GMT 50.187057 12.442884 38,000 287 404 0
2022-05-24 22:10:28 GMT 50.185501 12.451124 38,000 284 397 0
2022-05-24 22:10:25 GMT 50.184105 12.458496 38,000 287 404 0
2022-05-24 22:10:22 GMT 50.182571 12.466374 38,000 288 402 0
2022-05-24 22:10:19 GMT 50.180984 12.474604 38,000 287 404 64
2022-05-24 22:10:16 GMT 50.179092 12.484300 38,000 287 404 64
2022-05-24 22:10:13 GMT 50.176983 12.495092 38,000 287 404 0
2022-05-24 22:10:10 GMT 50.174980 12.505336 38,000 287 403 0
2022-05-24 22:10:08 GMT 50.174980 12.505336 38,000 287 403 0
2022-05-24 22:10:05 GMT 50.172466 12.518253 38,000 287 403 0
2022-05-24 22:10:02 GMT 50.171906 12.521162 38,000 287 403 64
2022-05-24 22:09:59 GMT 50.169952 12.531021 38,000 287 403 0
2022-05-24 22:09:56 GMT 50.168369 12.539186 38,000 287 403 0
2022-05-24 22:09:52 GMT 50.166458 12.548989 38,000 287 403 0
2022-05-24 22:09:49 GMT 50.164692 12.557893 38,000 288 402 64
2022-05-24 22:09:46 GMT 50.163345 12.564745 38,000 288 402 64
2022-05-24 22:09:42 GMT 50.159637 12.583466 38,000 288 402 0
2022-05-24 22:09:38 GMT 50.158546 12.588847 38,000 288 402 0
2022-05-24 22:09:35 GMT 50.156639 12.598349 38,000 288 402 0
2022-05-24 22:09:32 GMT 50.155289 12.605104 37,975 288 402 64
2022-05-24 22:09:29 GMT 50.153778 12.612811 38,000 288 402 0
2022-05-24 22:09:26 GMT 50.152039 12.621629 37,975 288 402 0
2022-05-24 22:09:23 GMT 50.150585 12.628784 37,975 288 402 0
2022-05-24 22:09:20 GMT 50.147507 12.644613 38,000 287 402 0
2022-05-24 22:09:18 GMT 50.147507 12.644613 38,000 287 402 0
2022-05-24 22:09:15 GMT 50.146042 12.652130 37,975 287 401 -64
2022-05-24 22:09:12 GMT 50.144485 12.660153 37,975 287 401 -64
2022-05-24 22:09:09 GMT 50.142906 12.668721 38,000 287 400 -64
2022-05-24 22:09:05 GMT 50.141006 12.679162 38,000 286 400 -64
2022-05-24 22:09:02 GMT 50.139359 12.688558 38,000 284 397 0
2022-05-24 22:08:59 GMT 50.138077 12.696220 38,000 284 398 0
2022-05-24 22:08:56 GMT 50.136383 12.706700 38,000 284 397 0
2022-05-24 22:08:53 GMT 50.135269 12.714151 38,000 284 397 0
2022-05-24 22:08:50 GMT 50.134201 12.721203 38,000 284 397 -64
2022-05-24 22:08:48 GMT 50.132355 12.733588 38,000 284 397 0
2022-05-24 22:08:46 GMT 50.132355 12.733588 38,000 284 397 0
2022-05-24 22:08:43 GMT 50.131035 12.742359 38,000 284 397 0
2022-05-24 22:08:40 GMT 50.130112 12.748694 38,000 284 396 0
2022-05-24 22:08:38 GMT 50.128967 12.756356 38,000 284 396 0
2022-05-24 22:08:34 GMT 50.127457 12.766258 38,000 284 397 0
2022-05-24 22:08:31 GMT 50.126286 12.774056 38,000 284 397 -64
2022-05-24 22:08:28 GMT 50.125263 12.780811 38,000 284 397 -64
2022-05-24 22:08:25 GMT 50.123959 12.789719 38,000 284 397 -64
2022-05-24 22:08:22 GMT 50.122879 12.796832 38,000 283 397 -64
2022-05-24 22:08:19 GMT 50.120224 12.814612 38,025 283 396 0
2022-05-24 22:08:16 GMT 50.120224 12.814612 38,025 283 396 -64
2022-05-24 22:08:13 GMT 50.119034 12.822852 38,025 283 396 -64
2022-05-24 22:08:10 GMT 50.117523 12.832754 38,025 283 396 0
2022-05-24 22:08:08 GMT 50.116699 12.838609 38,025 283 396 0
2022-05-24 22:08:05 GMT 50.115673 12.845393 38,025 283 396 0
2022-05-24 22:08:02 GMT 50.113586 12.859425 38,025 283 396 0
2022-05-24 22:07:59 GMT 50.113159 12.862244 38,025 283 397 0
2022-05-24 22:07:56 GMT 50.111893 12.870917 38,025 283 397 0
2022-05-24 22:07:53 GMT 50.109295 12.888596 38,025 283 397 0
2022-05-24 22:07:50 GMT 50.109295 12.888596 38,025 283 397 0
2022-05-24 22:07:48 GMT 50.108688 12.892384 38,025 284 396 0
2022-05-24 22:07:45 GMT 50.107388 12.901215 38,025 284 396 0
2022-05-24 22:07:42 GMT 50.106361 12.908045 38,025 284 396 0
2022-05-24 22:07:39 GMT 50.105072 12.916597 38,025 284 397 0
2022-05-24 22:07:37 GMT 50.103848 12.924673 38,025 284 397 0
2022-05-24 22:07:34 GMT 50.102783 12.931920 38,025 284 397 0
2022-05-24 22:07:31 GMT 50.101147 12.942860 38,025 284 397 0
2022-05-24 22:07:28 GMT 50.100082 12.950062 38,025 284 397 0
2022-05-24 22:07:25 GMT 50.098984 12.957218 38,025 284 397 0
2022-05-24 22:07:22 GMT 50.097839 12.965096 38,025 284 397 0
2022-05-24 22:07:19 GMT 50.096832 12.971890 38,025 284 397 0
2022-05-24 22:07:17 GMT 50.095608 12.979753 38,000 284 397 64
2022-05-24 22:07:14 GMT 50.094585 12.986805 38,000 284 397 64
2022-05-24 22:07:11 GMT 50.092941 12.997404 38,000 284 397 64
2022-05-24 22:07:08 GMT 50.091797 13.004777 38,000 284 397 64
2022-05-24 22:07:05 GMT 50.089462 13.020061 38,000 284 397 64
2022-05-24 22:07:02 GMT 50.089462 13.020061 38,000 284 397 64
2022-05-24 22:06:59 GMT 50.088112 13.028894 38,000 284 397 0
2022-05-24 22:06:56 GMT 50.086990 13.036507 38,000 284 397 0
2022-05-24 22:06:53 GMT 50.085506 13.046042 38,000 284 397 64
2022-05-24 22:06:49 GMT 50.084156 13.054876 38,000 284 397 0
2022-05-24 22:06:47 GMT 50.083099 13.061732 38,000 284 397 64
2022-05-24 22:06:44 GMT 50.081451 13.072502 37,975 284 396 0
2022-05-24 22:06:41 GMT 50.080292 13.079817 38,000 284 396 64
2022-05-24 22:06:37 GMT 50.078804 13.089690 37,975 284 396 64
2022-05-24 22:06:34 GMT 50.077606 13.097438 37,975 284 396 64
2022-05-24 22:06:31 GMT 50.076382 13.105576 37,975 284 396 64
2022-05-24 22:06:28 GMT 50.075127 13.113667 37,975 284 396 64
2022-05-24 22:06:26 GMT 50.074036 13.120711 37,975 284 397 0
2022-05-24 22:06:23 GMT 50.070843 13.141504 37,975 284 396 64
2022-05-24 22:06:20 GMT 50.070236 13.145513 37,975 284 397 64
2022-05-24 22:06:17 GMT 50.070236 13.145513 37,975 284 397 64
2022-05-24 22:06:14 GMT 50.067722 13.161621 37,975 284 396 -64
2022-05-24 22:06:11 GMT 50.067722 13.161621 37,950 284 396 0
2022-05-24 22:06:08 GMT 50.066280 13.171123 37,950 284 396 0
2022-05-24 22:06:05 GMT 50.065163 13.178323 37,975 284 396 0
2022-05-24 22:06:02 GMT 50.063908 13.186563 37,975 284 396 0
2022-05-24 22:05:59 GMT 50.062508 13.195545 37,950 284 396 0
2022-05-24 22:05:55 GMT 50.060760 13.207229 37,975 284 396 0
2022-05-24 22:05:52 GMT 50.059708 13.214095 37,975 284 397 -64
2022-05-24 22:05:49 GMT 50.057053 13.231948 37,975 284 396 -64
2022-05-24 22:05:46 GMT 50.057053 13.231948 37,975 284 396 -64
2022-05-24 22:05:43 GMT 50.055679 13.241127 37,975 284 396 -64
2022-05-24 22:05:40 GMT 50.054642 13.247804 37,975 284 396 -64
2022-05-24 22:05:37 GMT 50.053619 13.254634 37,975 284 396 0
2022-05-24 22:05:35 GMT 50.052612 13.261293 37,975 284 396 0
2022-05-24 22:05:32 GMT 50.050034 13.278388 37,975 284 396 0
2022-05-24 22:05:29 GMT 50.050034 13.278388 37,975 284 396 0
2022-05-24 22:05:26 GMT 50.048676 13.287097 37,975 284 396 0
2022-05-24 22:05:23 GMT 50.046158 13.303504 37,975 284 397 0
2022-05-24 22:05:20 GMT 50.044353 13.314910 37,975 284 397 0
2022-05-24 22:05:17 GMT 50.044353 13.314910 37,975 284 397 0
2022-05-24 22:05:14 GMT 50.042305 13.328198 37,975 284 397 0
2022-05-24 22:05:11 GMT 50.042305 13.328198 37,975 284 397 64
2022-05-24 22:05:08 GMT 50.039558 13.345939 37,975 284 397 0
2022-05-24 22:05:05 GMT 50.039558 13.345939 37,975 284 397 0
2022-05-24 22:05:02 GMT 50.038239 13.354388 37,975 284 397 0
2022-05-24 22:04:59 GMT 50.037045 13.362047 37,975 284 397 0
2022-05-24 22:04:56 GMT 50.034439 13.378673 37,975 284 397 64
2022-05-24 22:04:53 GMT 50.034439 13.378673 37,975 284 397 64
2022-05-24 22:04:50 GMT 50.033413 13.385208 37,950 284 398 64
2022-05-24 22:04:47 GMT 50.031601 13.396671 37,950 284 398 0
2022-05-24 22:04:44 GMT 50.030479 13.403766 37,975 284 398 0
2022-05-24 22:04:41 GMT 50.029495 13.410404 37,975 284 398 0
2022-05-24 22:04:38 GMT 50.028214 13.418571 37,975 284 398 -64
2022-05-24 22:04:36 GMT 50.026932 13.426666 37,975 284 398 -64
2022-05-24 22:04:33 GMT 50.025879 13.433533 37,975 284 399 -64
2022-05-24 22:04:30 GMT 50.023220 13.450309 37,975 284 399 -64
2022-05-24 22:04:27 GMT 50.022354 13.455939 37,975 284 401 0
2022-05-24 22:04:25 GMT 50.022354 13.455939 37,975 284 401 0
2022-05-24 22:04:22 GMT 50.021030 13.464413 37,975 284 399 0
2022-05-24 22:04:19 GMT 50.019516 13.474298 37,975 284 399 0
2022-05-24 22:04:16 GMT 50.018192 13.482674 37,975 284 399 0
2022-05-24 22:04:13 GMT 50.017029 13.490246 37,975 284 399 0
2022-05-24 22:04:10 GMT 50.015900 13.497282 37,975 284 399 0
2022-05-24 22:04:07 GMT 50.014526 13.506028 37,975 284 399 0
2022-05-24 22:04:04 GMT 50.013210 13.514594 37,975 284 399 0
2022-05-24 22:04:01 GMT 50.011768 13.523502 37,975 284 400 0
2022-05-24 22:03:58 GMT 50.010605 13.530777 37,975 284 400 0
2022-05-24 22:03:55 GMT 50.009399 13.538553 37,975 285 400 0
2022-05-24 22:03:52 GMT 50.007763 13.548815 37,975 284 400 0
2022-05-24 22:03:49 GMT 50.005005 13.565875 37,975 285 400 0
2022-05-24 22:03:46 GMT 50.005005 13.565875 37,975 285 400 0
2022-05-24 22:03:43 GMT 50.003948 13.572643 38,000 284 402 -64
2022-05-24 22:03:40 GMT 50.002178 13.583630 37,975 284 401 -64
2022-05-24 22:03:37 GMT 49.999851 13.597882 38,000 284 402 -64
2022-05-24 22:03:34 GMT 49.999851 13.597882 38,000 284 401 0
2022-05-24 22:03:31 GMT 49.998688 13.605231 38,000 284 402 0
2022-05-24 22:03:28 GMT 49.996811 13.617120 38,000 284 402 0
2022-05-24 22:03:25 GMT 49.995941 13.622613 38,000 284 402 -64
2022-05-24 22:03:22 GMT 49.994591 13.630990 38,000 284 402 -64
2022-05-24 22:03:19 GMT 49.993286 13.639304 38,000 284 402 -64
2022-05-24 22:03:16 GMT 49.991657 13.649548 38,000 284 402 -64
2022-05-24 22:03:13 GMT 49.990494 13.657045 38,000 284 402 -64
2022-05-24 22:03:09 GMT 49.987701 13.674787 38,000 284 403 0
2022-05-24 22:03:06 GMT 49.987701 13.674787 38,000 284 403 0
2022-05-24 22:03:04 GMT 49.986256 13.683769 38,000 284 403 0
2022-05-24 22:03:01 GMT 49.985184 13.690555 38,000 284 403 0
2022-05-24 22:02:58 GMT 49.983810 13.699301 38,000 284 404 0
2022-05-24 22:02:55 GMT 49.981476 13.714045 38,000 284 404 0
2022-05-24 22:02:51 GMT 49.980835 13.718238 38,000 284 405 64
2022-05-24 22:02:48 GMT 49.979786 13.724893 38,000 284 404 64
2022-05-24 22:02:46 GMT 49.978455 13.733488 38,000 284 405 0
2022-05-24 22:02:43 GMT 49.977310 13.740789 38,000 284 403 0
2022-05-24 22:02:40 GMT 49.976120 13.748378 38,000 284 404 64
2022-05-24 22:02:37 GMT 49.974609 13.757919 38,000 284 403 0
2022-05-24 22:02:34 GMT 49.973175 13.766834 38,000 285 404 64
2022-05-24 22:02:31 GMT 49.971779 13.775371 38,000 285 404 0
2022-05-24 22:02:28 GMT 49.970718 13.782276 38,000 285 404 0
2022-05-24 22:02:24 GMT 49.968708 13.794448 38,000 285 405 0
2022-05-24 22:02:21 GMT 49.967377 13.802803 38,000 285 405 0
2022-05-24 22:02:18 GMT 49.966007 13.811151 38,000 285 404 0
2022-05-24 22:02:15 GMT 49.964657 13.819316 38,000 285 404 0
2022-05-24 22:02:12 GMT 49.962799 13.830775 38,000 285 404 0
2022-05-24 22:02:09 GMT 49.961956 13.836241 38,000 285 404 0
2022-05-24 22:02:06 GMT 49.958954 13.854844 38,000 284 403 0
2022-05-24 22:02:03 GMT 49.958954 13.854844 38,000 284 403 0
2022-05-24 22:02:00 GMT 49.957993 13.860843 38,000 284 403 0
2022-05-24 22:01:57 GMT 49.956837 13.868161 38,000 284 403 0
2022-05-24 22:01:53 GMT 49.955017 13.879925 38,000 284 403 0
2022-05-24 22:01:50 GMT 49.953506 13.889393 38,000 284 402 0
2022-05-24 22:01:47 GMT 49.951218 13.904282 38,000 284 402 0
2022-05-24 22:01:44 GMT 49.951218 13.904282 38,000 284 402 0
2022-05-24 22:01:42 GMT 49.949890 13.912667 38,000 284 401 0
2022-05-24 22:01:38 GMT 49.947849 13.925691 38,000 284 399 0
2022-05-24 22:01:35 GMT 49.947014 13.931184 38,000 284 399 0
2022-05-24 22:01:32 GMT 49.944443 13.947794 38,000 284 399 0
2022-05-24 22:01:29 GMT 49.944443 13.947794 38,000 284 398 -64
2022-05-24 22:01:26 GMT 49.942841 13.958130 38,000 284 398 -64
2022-05-24 22:01:23 GMT 49.940735 13.971357 38,000 284 399 -64
2022-05-24 22:01:21 GMT 49.940735 13.971357 38,000 284 399 -64
2022-05-24 22:01:18 GMT 49.939590 13.978440 38,025 284 399 -64
2022-05-24 22:01:15 GMT 49.938400 13.986115 38,025 284 399 -128
2022-05-24 22:01:12 GMT 49.936352 13.998735 38,025 285 400 -192
2022-05-24 22:01:09 GMT 49.935699 14.002943 38,025 285 400 -256
2022-05-24 22:01:06 GMT 49.934071 14.012839 38,050 285 401 -192
2022-05-24 22:01:03 GMT 49.932770 14.021004 38,050 285 402 -128
2022-05-24 22:01:00 GMT 49.931488 14.028963 38,050 285 403 0
2022-05-24 22:00:57 GMT 49.929974 14.038300 38,050 285 403 -64
2022-05-24 22:00:54 GMT 49.927551 14.053032 38,050 285 404 0
2022-05-24 22:00:51 GMT 49.927551 14.053032 38,050 285 404 64
2022-05-24 22:00:48 GMT 49.926132 14.061560 38,050 285 404 64
2022-05-24 22:00:45 GMT 49.923038 14.080167 38,050 285 404 64
2022-05-24 22:00:41 GMT 49.923038 14.080167 38,050 285 404 64
2022-05-24 22:00:38 GMT 49.921646 14.088593 38,050 285 406 64
2022-05-24 22:00:35 GMT 49.920013 14.098354 38,050 285 406 64
2022-05-24 22:00:32 GMT 49.917114 14.115625 38,050 285 406 0
2022-05-24 22:00:29 GMT 49.917114 14.115625 38,025 285 406 -64
2022-05-24 22:00:26 GMT 49.915421 14.125744 38,050 285 406 0
2022-05-24 22:00:23 GMT 49.914055 14.134060 38,050 285 406 -64
2022-05-24 22:00:20 GMT 49.911819 14.147793 38,050 285 406 0
2022-05-24 22:00:17 GMT 49.911819 14.147793 38,050 285 406 0
2022-05-24 22:00:14 GMT 49.910202 14.157474 38,050 285 406 0
2022-05-24 22:00:12 GMT 49.908932 14.165163 38,050 285 406 -64
2022-05-24 22:00:09 GMT 49.907677 14.172957 38,050 285 406 0
2022-05-24 22:00:06 GMT 49.906540 14.179808 38,050 285 406 64
2022-05-24 22:00:03 GMT 49.904930 14.189511 38,050 285 406 0
2022-05-24 22:00:00 GMT 49.903702 14.197010 38,050 285 406 0
2022-05-24 21:59:57 GMT 49.901962 14.207852 38,050 284 406 0
2022-05-24 21:59:54 GMT 49.900879 14.214453 38,050 284 406 0
2022-05-24 21:59:52 GMT 49.899994 14.219923 38,050 284 406 -64
2022-05-24 21:59:49 GMT 49.898438 14.229825 38,050 284 405 -128
2022-05-24 21:59:46 GMT 49.895805 14.246076 38,050 284 406 0
2022-05-24 21:59:43 GMT 49.895805 14.246076 38,050 284 406 64
2022-05-24 21:59:40 GMT 49.894135 14.256495 38,050 284 405 64
2022-05-24 21:59:37 GMT 49.891617 14.272541 38,050 284 404 -64
2022-05-24 21:59:34 GMT 49.890289 14.280926 38,050 284 404 128
2022-05-24 21:59:31 GMT 49.890289 14.280926 38,050 285 405 0
2022-05-24 21:59:28 GMT 49.889145 14.287864 38,050 285 405 0
2022-05-24 21:59:24 GMT 49.887405 14.298634 38,050 285 405 0
2022-05-24 21:59:22 GMT 49.886673 14.303187 38,050 285 405 64
2022-05-24 21:59:19 GMT 49.884659 14.315475 38,050 285 405 0
2022-05-24 21:59:16 GMT 49.883698 14.321618 38,050 285 404 0
2022-05-24 21:59:13 GMT 49.882072 14.331368 38,050 285 404 0
2022-05-24 21:59:10 GMT 49.881134 14.337158 38,050 285 404 0
2022-05-24 21:59:07 GMT 49.879578 14.346916 38,050 285 404 0
2022-05-24 21:59:03 GMT 49.877792 14.357902 38,050 285 404 -64
2022-05-24 21:59:00 GMT 49.876255 14.367296 38,050 285 404 -64
2022-05-24 21:58:57 GMT 49.875042 14.374720 38,050 285 403 64
2022-05-24 21:58:54 GMT 49.873398 14.384790 38,050 285 403 64
2022-05-24 21:58:51 GMT 49.872208 14.391945 38,050 285 403 64
2022-05-24 21:58:48 GMT 49.868481 14.414359 38,050 285 403 64
2022-05-24 21:58:45 GMT 49.868481 14.414359 38,050 285 403 64
2022-05-24 21:58:41 GMT 49.867538 14.419917 38,050 285 403 64
2022-05-24 21:58:38 GMT 49.866337 14.427127 38,025 285 403 64
2022-05-24 21:58:35 GMT 49.864929 14.435529 38,025 285 403 64
2022-05-24 21:58:32 GMT 49.863125 14.446131 38,025 285 403 0
2022-05-24 21:58:29 GMT 49.861729 14.454445 38,025 285 403 64
2022-05-24 21:58:26 GMT 49.860764 14.460176 38,025 285 403 64
2022-05-24 21:58:23 GMT 49.859344 14.468488 38,025 285 403 64
2022-05-24 21:58:21 GMT 49.858154 14.475644 38,025 285 402 128
2022-05-24 21:58:18 GMT 49.856377 14.486216 38,000 285 402 128
2022-05-24 21:58:14 GMT 49.855072 14.493788 38,000 285 401 64
2022-05-24 21:58:11 GMT 49.853439 14.503471 38,000 285 400 0
2022-05-24 21:58:08 GMT 49.852249 14.510699 38,000 285 400 64
2022-05-24 21:58:05 GMT 49.850510 14.520882 38,000 285 400 64
2022-05-24 21:58:02 GMT 49.849686 14.525950 38,000 285 400 64
2022-05-24 21:57:59 GMT 49.848183 14.535061 38,000 285 400 0
2022-05-24 21:57:56 GMT 49.846832 14.542929 38,000 285 399 0
2022-05-24 21:57:53 GMT 49.845158 14.552950 38,000 285 399 0
2022-05-24 21:57:51 GMT 49.844086 14.559334 38,000 285 399 0
2022-05-24 21:57:48 GMT 49.842548 14.568762 38,000 285 398 0
2022-05-24 21:57:45 GMT 49.841125 14.577340 38,000 285 398 0
2022-05-24 21:57:42 GMT 49.840347 14.581965 38,000 285 396 0
2022-05-24 21:57:39 GMT 49.838745 14.591651 38,000 285 396 0
2022-05-24 21:57:36 GMT 49.836033 14.608105 37,975 285 395 0
2022-05-24 21:57:33 GMT 49.836033 14.608105 38,000 285 397 64
2022-05-24 21:57:31 GMT 49.835312 14.612467 38,000 285 397 0
2022-05-24 21:57:28 GMT 49.833572 14.623164 38,000 285 396 64
2022-05-24 21:57:25 GMT 49.832245 14.631187 38,000 285 396 0
2022-05-24 21:57:22 GMT 49.830872 14.639499 37,975 285 396 0
2022-05-24 21:57:19 GMT 49.829609 14.647151 38,000 285 395 0
2022-05-24 21:57:16 GMT 49.828213 14.655687 38,000 285 395 0
2022-05-24 21:57:13 GMT 49.827026 14.662700 38,000 285 395 0
2022-05-24 21:57:10 GMT 49.825653 14.671202 38,000 285 394 0
2022-05-24 21:57:07 GMT 49.824554 14.677734 38,000 285 393 0
2022-05-24 21:57:04 GMT 49.822769 14.688287 38,000 285 393 0
2022-05-24 21:57:01 GMT 49.821369 14.696738 38,000 285 393 0
2022-05-24 21:56:57 GMT 49.817829 14.717745 38,000 285 392 0
2022-05-24 21:56:53 GMT 49.817829 14.717745 38,000 285 392 0
2022-05-24 21:56:45 GMT 49.812149 14.751603 38,000 285 391 0
2022-05-24 21:56:40 GMT 49.809963 14.764512 38,000 285 390 0
2022-05-24 21:56:37 GMT 49.809357 14.768299 38,000 285 389 0
2022-05-24 21:56:31 GMT 49.808147 14.775275 38,000 285 389 0
2022-05-24 21:56:28 GMT 49.806473 14.785357 38,000 285 389 0
2022-05-24 21:56:25 GMT 49.805031 14.793759 38,000 285 388 0
2022-05-24 21:56:21 GMT 49.803452 14.803065 38,000 285 388 0
2022-05-24 21:56:18 GMT 49.801491 14.814692 38,000 285 387 0
2022-05-24 21:56:15 GMT 49.800838 14.818552 38,000 285 387 0
2022-05-24 21:56:12 GMT 49.799377 14.827134 38,000 285 387 0
2022-05-24 21:56:10 GMT 49.798508 14.832338 38,000 285 387 0
2022-05-24 21:56:07 GMT 49.797256 14.839412 38,000 285 388 64
2022-05-24 21:56:04 GMT 49.795673 14.848839 38,000 285 388 0
2022-05-24 21:56:01 GMT 49.794323 14.856782 38,000 285 389 0
2022-05-24 21:55:58 GMT 49.792831 14.865369 38,000 285 389 0
2022-05-24 21:55:55 GMT 49.791481 14.873187 38,000 285 390 0
2022-05-24 21:55:52 GMT 49.790039 14.881501 38,000 285 390 0
2022-05-24 21:55:50 GMT 49.789352 14.885390 38,000 285 392 0
2022-05-24 21:55:47 GMT 49.787617 14.895531 38,000 285 392 0
2022-05-24 21:55:44 GMT 49.786514 14.902087 38,000 285 392 0
2022-05-24 21:55:41 GMT 49.784920 14.911194 38,000 285 392 0
2022-05-24 21:55:38 GMT 49.783382 14.920176 38,000 285 392 0
2022-05-24 21:55:35 GMT 49.782452 14.925818 38,000 285 392 64
2022-05-24 21:55:32 GMT 49.780609 14.936419 38,000 285 392 64
2022-05-24 21:55:29 GMT 49.779427 14.943559 38,000 285 392 0
2022-05-24 21:55:26 GMT 49.778046 14.951453 38,000 285 392 0
2022-05-24 21:55:23 GMT 49.776672 14.959548 38,000 285 393 0
2022-05-24 21:55:20 GMT 49.775188 14.968056 38,000 285 393 0
2022-05-24 21:55:17 GMT 49.773979 14.975182 38,000 285 393 0
2022-05-24 21:55:14 GMT 49.772118 14.985945 38,000 285 393 0
2022-05-24 21:55:10 GMT 49.770401 14.995904 38,000 285 392 64
2022-05-24 21:55:07 GMT 49.769073 15.003710 38,000 285 392 128
2022-05-24 21:55:04 GMT 49.767883 15.010866 37,950 285 392 192
2022-05-24 21:54:59 GMT 49.765320 15.025828 37,975 285 392 192
2022-05-24 21:54:56 GMT 49.763828 15.034419 37,950 285 392 128
2022-05-24 21:54:53 GMT 49.762897 15.039912 37,950 285 392 64
2022-05-24 21:54:49 GMT 49.759361 15.060845 37,950 285 392 -64
2022-05-24 21:54:46 GMT 49.759361 15.060845 37,950 285 392 0
2022-05-24 21:54:43 GMT 49.758270 15.067171 37,950 285 392 0
2022-05-24 21:54:40 GMT 49.756569 15.077102 37,950 285 392 64
2022-05-24 21:54:37 GMT 49.755661 15.082349 37,950 285 392 64
2022-05-24 21:54:34 GMT 49.754013 15.092107 37,950 285 394 64
2022-05-24 21:54:31 GMT 49.750809 15.110827 37,950 285 394 0
2022-05-24 21:54:28 GMT 49.749298 15.119500 37,950 285 395 0
2022-05-24 21:54:25 GMT 49.749298 15.119500 37,950 285 395 0
2022-05-24 21:54:21 GMT 49.748051 15.126763 37,950 285 395 0
2022-05-24 21:54:19 GMT 49.746746 15.134484 37,950 285 395 0
2022-05-24 21:54:16 GMT 49.745628 15.140942 37,950 285 395 0
2022-05-24 21:54:13 GMT 49.744080 15.150146 37,950 285 396 0
2022-05-24 21:54:10 GMT 49.741974 15.162434 37,950 285 396 0
2022-05-24 21:54:08 GMT 49.741974 15.162434 37,950 285 396 0
2022-05-24 21:54:05 GMT 49.740276 15.172268 37,950 285 396 0
2022-05-24 21:54:02 GMT 49.739136 15.178913 37,950 286 396 0
2022-05-24 21:53:59 GMT 49.735840 15.197561 37,950 286 397 0
2022-05-24 21:53:56 GMT 49.735840 15.197561 37,950 286 397 -64
2022-05-24 21:53:53 GMT 49.735153 15.201753 37,975 286 399 -64
2022-05-24 21:53:50 GMT 49.733570 15.210720 37,975 286 399 -64
2022-05-24 21:53:48 GMT 49.731987 15.219553 37,975 286 399 -64
2022-05-24 21:53:45 GMT 49.731079 15.224810 37,975 286 399 -64
2022-05-24 21:53:42 GMT 49.729477 15.233773 37,975 286 400 -128
2022-05-24 21:53:39 GMT 49.726547 15.250324 37,975 286 400 -64
2022-05-24 21:53:36 GMT 49.726547 15.250324 37,975 286 401 -64
2022-05-24 21:53:33 GMT 49.724899 15.259648 38,000 286 401 -128
2022-05-24 21:53:30 GMT 49.723984 15.264780 38,000 286 402 -128
2022-05-24 21:53:28 GMT 49.721283 15.280031 38,000 286 402 -64
2022-05-24 21:53:25 GMT 49.721283 15.280031 38,000 286 403 -64
2022-05-24 21:53:22 GMT 49.720047 15.286970 38,000 285 406 -64
2022-05-24 21:53:19 GMT 49.718033 15.298534 38,000 286 403 0
2022-05-24 21:53:16 GMT 49.715416 15.313457 38,000 285 405 0
2022-05-24 21:53:13 GMT 49.715416 15.313457 38,000 285 404 0
2022-05-24 21:53:10 GMT 49.713879 15.322513 38,000 285 404 0
2022-05-24 21:53:08 GMT 49.711533 15.336047 38,000 285 405 0
2022-05-24 21:53:05 GMT 49.711533 15.336047 38,000 285 406 -64
2022-05-24 21:53:02 GMT 49.710060 15.344708 38,000 286 408 -64
2022-05-24 21:52:59 GMT 49.707138 15.361416 38,000 286 408 -64
2022-05-24 21:52:56 GMT 49.707138 15.361416 38,000 286 408 0
2022-05-24 21:52:53 GMT 49.704151 15.378410 38,000 286 408 64
2022-05-24 21:52:50 GMT 49.704151 15.378410 38,000 286 408 0
2022-05-24 21:52:47 GMT 49.702423 15.388593 38,000 285 408 0
2022-05-24 21:52:44 GMT 49.701122 15.395928 38,000 285 407 0
2022-05-24 21:52:41 GMT 49.699959 15.402684 38,000 285 407 0
2022-05-24 21:52:38 GMT 49.698532 15.411144 38,000 285 405 64
2022-05-24 21:52:35 GMT 49.696564 15.422347 38,000 285 406 64
2022-05-24 21:52:31 GMT 49.695026 15.431114 38,000 286 406 0
2022-05-24 21:52:28 GMT 49.693817 15.438166 38,000 286 405 0
2022-05-24 21:52:26 GMT 49.692654 15.444847 38,000 286 405 0
2022-05-24 21:52:23 GMT 49.691071 15.453829 38,000 286 404 0
2022-05-24 21:52:20 GMT 49.689285 15.463907 38,000 286 405 0
2022-05-24 21:52:17 GMT 49.688232 15.469979 38,000 286 405 0
2022-05-24 21:52:14 GMT 49.686275 15.481073 38,000 286 404 -64
2022-05-24 21:52:11 GMT 49.684925 15.488941 38,000 286 404 0
2022-05-24 21:52:08 GMT 49.682224 15.504233 38,000 286 404 0
2022-05-24 21:52:05 GMT 49.682224 15.504233 38,000 286 404 64
2022-05-24 21:52:02 GMT 49.680954 15.511467 38,000 286 404 0
2022-05-24 21:51:59 GMT 49.679443 15.520140 38,000 286 403 64
2022-05-24 21:51:57 GMT 49.678482 15.525633 38,000 286 403 0
2022-05-24 21:51:54 GMT 49.676731 15.535707 38,000 286 401 0
2022-05-24 21:51:51 GMT 49.675461 15.542908 38,000 286 401 0
2022-05-24 21:51:48 GMT 49.673939 15.551444 38,000 286 401 0
2022-05-24 21:51:45 GMT 49.672440 15.560110 38,000 286 399 0
2022-05-24 21:51:42 GMT 49.670746 15.569651 38,000 286 400 0
2022-05-24 21:51:39 GMT 49.669785 15.575072 38,000 286 400 0
2022-05-24 21:51:37 GMT 49.667419 15.588486 38,000 286 399 0
2022-05-24 21:51:34 GMT 49.667419 15.588486 38,000 286 399 0
2022-05-24 21:51:31 GMT 49.665756 15.597839 38,000 286 396 0
2022-05-24 21:51:28 GMT 49.663834 15.608753 38,000 286 396 0
2022-05-24 21:51:25 GMT 49.662643 15.615620 38,000 286 396 0
2022-05-24 21:51:22 GMT 49.661041 15.624799 38,000 286 395 64
2022-05-24 21:51:19 GMT 49.660080 15.630148 38,000 286 394 64
2022-05-24 21:51:17 GMT 49.659027 15.636075 37,975 286 394 128
2022-05-24 21:51:14 GMT 49.657837 15.642869 37,975 286 393 192
2022-05-24 21:51:11 GMT 49.656235 15.652048 37,975 286 392 192
2022-05-24 21:51:07 GMT 49.654129 15.663540 37,950 286 392 192
2022-05-24 21:51:03 GMT 49.652710 15.671491 37,950 286 392 128
2022-05-24 21:51:00 GMT 49.650833 15.681899 37,950 286 391 0
2022-05-24 21:50:57 GMT 49.648911 15.692741 37,950 286 391 0
2022-05-24 21:50:54 GMT 49.647915 15.698349 37,950 286 391 0
2022-05-24 21:50:51 GMT 49.646759 15.704811 37,950 286 391 0
2022-05-24 21:50:48 GMT 49.645264 15.713196 37,950 286 390 0
2022-05-24 21:50:46 GMT 49.642563 15.728265 37,950 286 389 0
2022-05-24 21:50:43 GMT 49.642563 15.728265 37,950 286 389 0
2022-05-24 21:50:40 GMT 49.641258 15.735465 37,950 286 389 0
2022-05-24 21:50:37 GMT 49.640030 15.742324 37,950 286 389 -64
2022-05-24 21:50:34 GMT 49.638371 15.751648 37,950 286 388 -64
2022-05-24 21:50:31 GMT 49.636929 15.759888 37,950 286 388 -64
2022-05-24 21:50:28 GMT 49.635681 15.766826 37,950 286 388 -64
2022-05-24 21:50:26 GMT 49.634647 15.772507 37,950 286 388 0
2022-05-24 21:50:23 GMT 49.633160 15.780747 37,950 286 389 0
2022-05-24 21:50:20 GMT 49.631577 15.789655 37,950 286 389 0
2022-05-24 21:50:17 GMT 49.628860 15.804773 37,950 286 388 64
2022-05-24 21:50:14 GMT 49.627247 15.813706 37,950 286 389 0
2022-05-24 21:50:11 GMT 49.627247 15.813706 37,950 286 389 0
2022-05-24 21:50:08 GMT 49.625931 15.821180 37,950 286 389 0
2022-05-24 21:50:06 GMT 49.624832 15.827107 37,950 286 389 0
2022-05-24 21:50:03 GMT 49.623459 15.834913 37,950 286 389 -64
2022-05-24 21:50:00 GMT 49.622177 15.841851 37,950 286 389 -64
2022-05-24 21:49:57 GMT 49.621124 15.847778 37,950 286 389 -64
2022-05-24 21:49:54 GMT 49.617783 15.866354 37,950 286 388 -64
2022-05-24 21:49:51 GMT 49.617783 15.866354 37,950 286 388 -64
2022-05-24 21:49:48 GMT 49.616318 15.874521 37,950 286 388 -64
2022-05-24 21:49:44 GMT 49.614624 15.883773 37,975 286 388 0
2022-05-24 21:49:41 GMT 49.613159 15.892013 37,975 286 388 0
2022-05-24 21:49:38 GMT 49.611649 15.900397 37,975 286 388 0
2022-05-24 21:49:36 GMT 49.610439 15.907312 37,975 286 387 0
2022-05-24 21:49:33 GMT 49.609230 15.913993 37,975 286 388 0
2022-05-24 21:49:30 GMT 49.607738 15.922084 37,975 286 389 0
2022-05-24 21:49:27 GMT 49.605927 15.932272 37,975 286 389 0
2022-05-24 21:49:24 GMT 49.604828 15.938343 37,975 286 389 0
2022-05-24 21:49:21 GMT 49.603592 15.945210 37,975 286 389 0
2022-05-24 21:49:18 GMT 49.601967 15.954375 37,975 286 389 0
2022-05-24 21:49:16 GMT 49.601028 15.959521 37,975 286 389 0
2022-05-24 21:49:13 GMT 49.598057 15.976125 37,975 286 389 -64
2022-05-24 21:49:10 GMT 49.598057 15.976125 37,975 286 389 -64
2022-05-24 21:49:06 GMT 49.595535 15.990167 37,975 286 390 -64
2022-05-24 21:49:03 GMT 49.593124 16.003666 37,975 286 390 -64
2022-05-24 21:49:00 GMT 49.592331 16.008045 37,975 286 390 -64
2022-05-24 21:48:57 GMT 49.592331 16.008045 37,975 286 390 -64
2022-05-24 21:48:54 GMT 49.590515 16.018066 37,975 286 390 -64
2022-05-24 21:48:51 GMT 49.588623 16.028547 37,975 286 390 0
2022-05-24 21:48:48 GMT 49.587708 16.033678 37,975 286 390 0
2022-05-24 21:48:45 GMT 49.586418 16.040855 38,000 286 391 0
2022-05-24 21:48:42 GMT 49.584503 16.051388 38,000 286 391 0
2022-05-24 21:48:39 GMT 49.582928 16.060081 38,025 286 392 0
2022-05-24 21:48:36 GMT 49.581390 16.068544 38,000 286 392 0
2022-05-24 21:48:33 GMT 49.580658 16.072781 38,000 286 392 0
2022-05-24 21:48:30 GMT 49.578918 16.082251 38,000 286 392 0
2022-05-24 21:48:27 GMT 49.576172 16.097357 38,000 286 392 0
2022-05-24 21:48:24 GMT 49.576172 16.097357 38,000 286 393 0
2022-05-24 21:48:21 GMT 49.574432 16.106970 38,000 286 393 0
2022-05-24 21:48:18 GMT 49.572918 16.115236 38,000 286 393 0
2022-05-24 21:48:15 GMT 49.571777 16.121569 38,000 286 393 0
2022-05-24 21:48:12 GMT 49.570129 16.130531 38,000 286 394 -64
2022-05-24 21:48:09 GMT 49.568710 16.138481 38,000 286 393 0
2022-05-24 21:48:06 GMT 49.567333 16.145893 38,000 286 394 0
2022-05-24 21:48:03 GMT 49.565891 16.153984 38,025 286 396 0
2022-05-24 21:48:00 GMT 49.564075 16.164005 38,025 286 393 -64
2022-05-24 21:47:57 GMT 49.562630 16.171801 38,000 286 394 -64
2022-05-24 21:47:54 GMT 49.561142 16.179892 38,025 286 395 -64
2022-05-24 21:47:51 GMT 49.560257 16.184940 38,025 286 395 -64
2022-05-24 21:47:48 GMT 49.558304 16.195480 38,025 286 395 -64
2022-05-24 21:47:45 GMT 49.555069 16.213364 38,025 286 395 -64
2022-05-24 21:47:42 GMT 49.553833 16.220053 38,025 286 395 -64
2022-05-24 21:47:39 GMT 49.553833 16.220053 38,025 286 396 -64
2022-05-24 21:47:36 GMT 49.552826 16.225578 38,025 286 396 0
2022-05-24 21:47:34 GMT 49.550110 16.240316 38,025 286 396 0
2022-05-24 21:47:31 GMT 49.550110 16.240316 38,025 286 396 0
2022-05-24 21:47:28 GMT 49.548386 16.249935 38,025 286 396 0
2022-05-24 21:47:25 GMT 49.547058 16.257092 38,025 286 396 0
2022-05-24 21:47:22 GMT 49.544151 16.273052 38,025 286 397 0
2022-05-24 21:47:19 GMT 49.544151 16.273052 38,025 286 395 0
2022-05-24 21:47:16 GMT 49.542572 16.281593 38,025 286 396 0
2022-05-24 21:47:13 GMT 49.541077 16.289904 38,025 286 397 0
2022-05-24 21:47:10 GMT 49.539047 16.301037 38,025 286 397 0
2022-05-24 21:47:07 GMT 49.538040 16.306385 38,025 286 397 0
2022-05-24 21:47:04 GMT 49.536530 16.314697 38,025 286 397 0
2022-05-24 21:47:01 GMT 49.534973 16.323227 38,025 286 397 0
2022-05-24 21:46:58 GMT 49.533630 16.330584 38,025 286 397 0
2022-05-24 21:46:55 GMT 49.531860 16.340158 38,025 286 398 0
2022-05-24 21:46:52 GMT 49.530350 16.348307 38,025 286 398 0
2022-05-24 21:46:49 GMT 49.527832 16.362112 38,025 286 398 0
2022-05-24 21:46:46 GMT 49.527832 16.362112 38,025 286 398 0
2022-05-24 21:46:43 GMT 49.525726 16.373386 38,025 286 399 64
2022-05-24 21:46:40 GMT 49.524719 16.378881 38,000 287 400 0
2022-05-24 21:46:37 GMT 49.523014 16.388039 38,025 286 399 64
2022-05-24 21:46:34 GMT 49.521713 16.395164 38,000 286 399 0
2022-05-24 21:46:31 GMT 49.518593 16.411942 38,025 286 399 0
2022-05-24 21:46:28 GMT 49.518593 16.411942 38,025 286 400 0
2022-05-24 21:46:25 GMT 49.517242 16.419439 38,025 286 400 0
2022-05-24 21:46:22 GMT 49.515793 16.427090 38,025 286 400 64
2022-05-24 21:46:19 GMT 49.514450 16.434507 38,025 286 400 64
2022-05-24 21:46:16 GMT 49.512447 16.445196 38,025 286 400 0
2022-05-24 21:46:13 GMT 49.511078 16.452604 38,000 286 400 64
2022-05-24 21:46:10 GMT 49.509018 16.463736 38,000 287 400 64
2022-05-24 21:46:07 GMT 49.507420 16.472143 38,000 287 400 64
2022-05-24 21:46:04 GMT 49.506023 16.479641 38,000 287 400 0
2022-05-24 21:46:01 GMT 49.504768 16.486397 38,000 287 400 0
2022-05-24 21:45:58 GMT 49.503555 16.492928 38,000 287 400 0
2022-05-24 21:45:55 GMT 49.501602 16.503271 38,000 287 400 0
2022-05-24 21:45:52 GMT 49.498444 16.520113 38,000 287 400 0
2022-05-24 21:45:49 GMT 49.498444 16.520113 38,000 287 400 0
2022-05-24 21:45:46 GMT 49.497070 16.527412 38,000 287 400 0
2022-05-24 21:45:44 GMT 49.496338 16.531532 38,000 287 400 -64
2022-05-24 21:45:41 GMT 49.494759 16.539768 38,000 287 400 64
2022-05-24 21:45:38 GMT 49.493179 16.548229 38,000 287 400 -64
2022-05-24 21:45:35 GMT 49.491486 16.557264 38,000 287 400 -64
2022-05-24 21:45:32 GMT 49.489731 16.566566 38,000 287 400 -64
2022-05-24 21:45:29 GMT 49.488144 16.574827 38,000 287 400 0
2022-05-24 21:45:25 GMT 49.485489 16.589066 38,000 287 400 0
2022-05-24 21:45:23 GMT 49.485489 16.589066 38,000 287 400 0
2022-05-24 21:45:20 GMT 49.483913 16.597521 38,000 287 400 64
2022-05-24 21:45:17 GMT 49.480316 16.616604 38,000 287 400 64
2022-05-24 21:45:14 GMT 49.480316 16.616604 38,000 287 400 0
2022-05-24 21:45:11 GMT 49.479397 16.621498 38,000 287 400 0
2022-05-24 21:45:08 GMT 49.477348 16.632336 38,000 287 400 0
2022-05-24 21:45:05 GMT 49.475578 16.641836 38,000 287 400 0
2022-05-24 21:45:02 GMT 49.474731 16.646238 38,000 287 400 0
2022-05-24 21:44:59 GMT 49.473267 16.654118 38,000 287 400 0
2022-05-24 21:44:56 GMT 49.471756 16.662212 38,000 287 400 0
2022-05-24 21:44:53 GMT 49.470039 16.671383 38,000 286 401 0
2022-05-24 21:44:50 GMT 49.468369 16.680353 38,000 286 400 0
2022-05-24 21:44:47 GMT 49.466595 16.689791 38,000 286 400 0
2022-05-24 21:44:44 GMT 49.465393 16.696255 38,000 286 400 0
2022-05-24 21:44:41 GMT 49.461987 16.714436 38,000 287 400 0
2022-05-24 21:44:38 GMT 49.460678 16.721624 38,000 287 400 0
2022-05-24 21:44:35 GMT 49.460175 16.724155 38,000 287 401 0
2022-05-24 21:44:30 GMT 49.458298 16.734129 38,000 287 401 0
2022-05-24 21:44:27 GMT 49.456512 16.743742 38,000 287 401 0
2022-05-24 21:44:24 GMT 49.454910 16.752127 38,000 287 401 0
2022-05-24 21:44:21 GMT 49.453400 16.760221 38,000 287 400 0
2022-05-24 21:44:18 GMT 49.451511 16.770184 38,000 287 400 64
2022-05-24 21:44:15 GMT 49.450302 16.776421 38,000 287 401 0
2022-05-24 21:44:12 GMT 49.449043 16.783100 38,000 287 400 0
2022-05-24 21:44:09 GMT 49.447403 16.791517 38,000 287 400 0
2022-05-24 21:44:06 GMT 49.445297 16.802576 38,000 287 400 0
2022-05-24 21:44:03 GMT 49.443787 16.810673 38,000 287 399 0
2022-05-24 21:44:00 GMT 49.442760 16.815987 38,000 287 397 64
2022-05-24 21:43:57 GMT 49.441177 16.824261 38,000 287 398 0
2022-05-24 21:43:53 GMT 49.439346 16.833874 38,000 287 396 64
2022-05-24 21:43:50 GMT 49.435497 16.854288 37,975 287 396 128
2022-05-24 21:43:47 GMT 49.434677 16.858593 37,975 287 394 256
2022-05-24 21:43:44 GMT 49.434677 16.858593 37,975 287 395 256
2022-05-24 21:43:42 GMT 49.432159 16.872108 37,950 287 393 128
2022-05-24 21:43:39 GMT 49.432159 16.872108 37,950 287 393 128
2022-05-24 21:43:36 GMT 49.430283 16.882011 37,950 287 393 64
2022-05-24 21:43:33 GMT 49.429306 16.887100 37,950 287 393 0
2022-05-24 21:43:30 GMT 49.427170 16.898312 37,950 287 393 0
2022-05-24 21:43:27 GMT 49.426140 16.903839 37,950 287 393 0
2022-05-24 21:43:24 GMT 49.423069 16.920029 37,950 287 393 -64
2022-05-24 21:43:21 GMT 49.423069 16.920029 37,950 287 393 -64
2022-05-24 21:43:18 GMT 49.421539 16.928242 37,950 287 393 -64
2022-05-24 21:43:15 GMT 49.419983 16.936552 37,950 287 393 -64
2022-05-24 21:43:12 GMT 49.418365 16.945038 37,950 287 392 -64
2022-05-24 21:43:09 GMT 49.416367 16.955355 37,950 287 398 -64
2022-05-24 21:43:06 GMT 49.415131 16.961975 37,950 287 392 0
2022-05-24 21:43:03 GMT 49.413574 16.970215 37,950 287 392 64
2022-05-24 21:43:00 GMT 49.412201 16.977257 37,950 287 392 0
2022-05-24 21:42:57 GMT 49.410690 16.985214 37,950 287 392 0
2022-05-24 21:42:54 GMT 49.409317 16.992470 37,950 287 393 0
2022-05-24 21:42:51 GMT 49.407707 17.000765 37,950 287 393 0
2022-05-24 21:42:48 GMT 49.405884 17.010216 37,950 287 393 0
2022-05-24 21:42:45 GMT 49.404556 17.017328 37,950 287 393 -64
2022-05-24 21:42:42 GMT 49.403423 17.023170 37,950 287 393 -64
2022-05-24 21:42:39 GMT 49.399792 17.042179 37,950 287 394 -64
2022-05-24 21:42:36 GMT 49.399792 17.042179 37,975 287 394 -64
2022-05-24 21:42:33 GMT 49.398487 17.048973 37,975 287 394 -64
2022-05-24 21:42:30 GMT 49.396954 17.056997 37,975 287 394 -64
2022-05-24 21:42:27 GMT 49.394073 17.072121 37,975 287 395 -64
2022-05-24 21:42:24 GMT 49.394073 17.072121 37,975 287 395 -64
2022-05-24 21:42:21 GMT 49.392483 17.080416 37,975 287 395 -64
2022-05-24 21:42:18 GMT 49.388897 17.099136 38,000 287 397 -64
2022-05-24 21:42:15 GMT 49.388897 17.099136 38,000 287 396 -64
2022-05-24 21:42:12 GMT 49.388031 17.103600 38,000 287 397 -64
2022-05-24 21:42:10 GMT 49.384735 17.120853 38,000 287 397 -64
2022-05-24 21:42:07 GMT 49.384735 17.120853 38,000 287 397 -64
2022-05-24 21:42:04 GMT 49.381897 17.135504 38,000 287 397 -64
2022-05-24 21:42:01 GMT 49.381897 17.135504 38,000 287 398 -64
2022-05-24 21:41:58 GMT 49.380470 17.142937 38,000 287 398 -64
2022-05-24 21:41:55 GMT 49.378693 17.152193 38,000 287 398 0
2022-05-24 21:41:52 GMT 49.377075 17.160355 38,000 287 398 0
2022-05-24 21:41:49 GMT 49.375626 17.168039 38,000 287 398 0
2022-05-24 21:41:46 GMT 49.374481 17.173815 38,000 287 398 64
2022-05-24 21:41:43 GMT 49.372513 17.183954 38,000 287 398 64
2022-05-24 21:41:40 GMT 49.370373 17.195122 38,000 287 398 0
2022-05-24 21:41:37 GMT 49.368988 17.202126 38,000 287 398 0
2022-05-24 21:41:34 GMT 49.367203 17.211210 38,000 287 398 0
2022-05-24 21:41:31 GMT 49.366180 17.216516 38,000 287 399 0
2022-05-24 21:41:28 GMT 49.364693 17.224106 38,000 287 400 0
2022-05-24 21:41:25 GMT 49.363358 17.230999 38,000 287 400 0
2022-05-24 21:41:21 GMT 49.359432 17.251137 38,000 287 400 0
2022-05-24 21:41:18 GMT 49.357727 17.259733 38,000 287 401 0
2022-05-24 21:41:15 GMT 49.357727 17.259733 38,000 287 401 0
2022-05-24 21:41:12 GMT 49.356125 17.268049 38,000 287 401 0
2022-05-24 21:41:09 GMT 49.352966 17.284382 38,000 287 400 0
2022-05-24 21:41:06 GMT 49.352966 17.284382 38,000 287 400 0
2022-05-24 21:41:03 GMT 49.351330 17.292698 38,000 287 400 0
2022-05-24 21:41:00 GMT 49.349190 17.303827 38,000 287 399 0
2022-05-24 21:40:56 GMT 49.347656 17.311707 38,000 287 399 0
2022-05-24 21:40:52 GMT 49.345978 17.320379 38,000 287 399 0
2022-05-24 21:40:50 GMT 49.343079 17.335510 38,000 287 398 0
2022-05-24 21:40:47 GMT 49.343079 17.335510 38,000 287 398 0
2022-05-24 21:40:43 GMT 49.340790 17.347271 38,000 287 398 0
2022-05-24 21:40:40 GMT 49.339554 17.353701 38,000 287 398 0
2022-05-24 21:40:37 GMT 49.336533 17.369173 38,000 287 397 64
2022-05-24 21:40:34 GMT 49.336533 17.369173 38,000 287 397 0
2022-05-24 21:40:31 GMT 49.335022 17.376921 38,000 287 397 0
2022-05-24 21:40:28 GMT 49.332687 17.389032 38,000 287 396 64
2022-05-24 21:40:25 GMT 49.331638 17.394609 38,000 287 396 64
2022-05-24 21:40:22 GMT 49.330288 17.401693 37,975 287 396 64
2022-05-24 21:40:20 GMT 49.328800 17.409138 38,000 287 397 64
2022-05-24 21:40:17 GMT 49.327541 17.415644 38,000 287 396 64
2022-05-24 21:40:14 GMT 49.326141 17.422909 38,000 287 397 64
2022-05-24 21:40:11 GMT 49.324402 17.431923 37,975 287 397 64
2022-05-24 21:40:08 GMT 49.322468 17.441952 37,975 287 397 64
2022-05-24 21:40:05 GMT 49.320930 17.449759 37,975 287 398 64
2022-05-24 21:40:02 GMT 49.319630 17.456480 37,975 287 399 64
2022-05-24 21:39:59 GMT 49.318233 17.463491 37,975 287 399 64
2022-05-24 21:39:56 GMT 49.316555 17.472019 37,975 287 399 128
2022-05-24 21:39:53 GMT 49.314789 17.480984 37,975 287 399 192
2022-05-24 21:39:50 GMT 49.312912 17.490726 37,950 287 399 512
2022-05-24 21:39:47 GMT 49.311310 17.498966 37,925 287 398 704
2022-05-24 21:39:44 GMT 49.310394 17.503546 37,875 287 398 896
2022-05-24 21:39:41 GMT 49.307991 17.515821 37,825 287 399 960
2022-05-24 21:39:38 GMT 49.304810 17.531925 37,750 287 399 896
2022-05-24 21:39:35 GMT 49.304810 17.531925 37,725 287 399 896
2022-05-24 21:39:32 GMT 49.302063 17.546082 37,675 287 399 704
2022-05-24 21:39:29 GMT 49.302063 17.546082 37,650 287 399 704
2022-05-24 21:39:26 GMT 49.300262 17.555067 37,625 287 399 704
2022-05-24 21:39:23 GMT 49.298725 17.562874 37,600 287 399 640
2022-05-24 21:39:20 GMT 49.296864 17.572344 37,525 287 398 768
2022-05-24 21:39:17 GMT 49.295792 17.577913 37,525 287 398 768
2022-05-24 21:39:14 GMT 49.293652 17.588606 37,475 287 398 960
2022-05-24 21:39:11 GMT 49.292534 17.594172 37,400 287 399 1216
2022-05-24 21:39:08 GMT 49.290573 17.604322 37,325 287 399 1280
2022-05-24 21:39:05 GMT 49.289337 17.610451 37,225 287 399 1344
2022-05-24 21:39:02 GMT 49.287827 17.618338 37,025 287 401 1408
2022-05-24 21:38:59 GMT 49.285973 17.627708 37,125 287 402 1280
2022-05-24 21:38:56 GMT 49.284393 17.635662 36,850 287 402 832
2022-05-24 21:38:53 GMT 49.283020 17.642775 37,025 287 402 1216
2022-05-24 21:38:50 GMT 49.281410 17.650837 36,950 287 401 960
2022-05-24 21:38:47 GMT 49.279732 17.659437 36,900 287 403 896
2022-05-24 21:38:44 GMT 49.278305 17.666510 36,850 287 402 832
2022-05-24 21:38:41 GMT 49.274506 17.685877 36,825 287 402 832
2022-05-24 21:38:38 GMT 49.273403 17.691313 36,775 287 402 896
2022-05-24 21:38:35 GMT 49.273403 17.691313 36,725 287 402 896
2022-05-24 21:38:32 GMT 49.271713 17.699890 36,650 287 402 896
2022-05-24 21:38:29 GMT 49.269699 17.710173 36,625 287 401 896
2022-05-24 21:38:26 GMT 49.268097 17.718271 36,600 287 402 896
2022-05-24 21:38:23 GMT 49.267071 17.723261 36,550 287 401 960
2022-05-24 21:38:20 GMT 49.264618 17.735596 36,500 287 401 960
2022-05-24 21:38:17 GMT 49.263016 17.743765 36,450 287 401 1024
2022-05-24 21:38:14 GMT 49.261486 17.751305 36,375 287 401 1024
2022-05-24 21:38:11 GMT 49.259529 17.761063 36,000 288 401 0
2022-05-24 21:38:08 GMT 49.258553 17.765978 36,300 287 401 1024
2022-05-24 21:38:05 GMT 49.256790 17.774752 36,275 287 401 960
2022-05-24 21:38:01 GMT 49.254822 17.784822 36,000 287 401 768
2022-05-24 21:37:59 GMT 49.252396 17.796865 36,150 287 401 896
2022-05-24 21:37:56 GMT 49.252396 17.796865 36,075 287 401 704
2022-05-24 21:37:53 GMT 49.250610 17.805811 36,100 287 401 768
2022-05-24 21:37:50 GMT 49.248962 17.814049 36,050 287 400 320
2022-05-24 21:37:47 GMT 49.247360 17.822147 36,025 287 400 384
2022-05-24 21:37:44 GMT 49.245705 17.830305 36,000 287 401 128
2022-05-24 21:37:40 GMT 49.241730 17.850248 36,000 288 401 0
2022-05-24 21:37:37 GMT 49.241730 17.850248 36,000 288 401 0
2022-05-24 21:37:34 GMT 49.240303 17.857338 36,000 288 401 0
2022-05-24 21:37:31 GMT 49.238674 17.865433 36,000 288 402 -64
2022-05-24 21:37:28 GMT 49.236282 17.877361 36,000 288 402 -64
2022-05-24 21:37:25 GMT 49.235321 17.882010 36,000 288 402 0
2022-05-24 21:37:22 GMT 49.233322 17.892103 36,000 288 402 0
2022-05-24 21:37:19 GMT 49.232159 17.897739 36,000 288 402 0
2022-05-24 21:37:16 GMT 49.230423 17.906446 36,000 288 402 0
2022-05-24 21:37:13 GMT 49.228775 17.914618 36,000 288 402 0
2022-05-24 21:37:10 GMT 49.227264 17.922293 36,000 288 402 0
2022-05-24 21:37:07 GMT 49.225204 17.932364 36,000 288 402 0
2022-05-24 21:37:04 GMT 49.224152 17.937716 36,000 288 402 0
2022-05-24 21:37:01 GMT 49.220398 17.956450 36,000 288 402 0
2022-05-24 21:36:58 GMT 49.220398 17.956450 36,000 288 402 -64
2022-05-24 21:36:55 GMT 49.218933 17.963703 36,000 288 402 -64
2022-05-24 21:36:52 GMT 49.217121 17.972622 36,000 288 402 -64
2022-05-24 21:36:49 GMT 49.215958 17.978621 36,000 288 402 0
2022-05-24 21:36:46 GMT 49.213814 17.989317 36,000 288 402 0
2022-05-24 21:36:43 GMT 49.212746 17.994595 36,000 288 402 0
2022-05-24 21:36:40 GMT 49.210510 18.005651 36,000 288 402 0
2022-05-24 21:36:37 GMT 49.209114 18.012663 36,000 288 401 0
2022-05-24 21:36:34 GMT 49.207397 18.021099 36,000 288 401 0
2022-05-24 21:36:31 GMT 49.205658 18.029833 36,000 288 401 0
2022-05-24 21:36:28 GMT 49.204273 18.036732 36,000 288 400 0
2022-05-24 21:36:25 GMT 49.202087 18.047649 36,000 288 400 0
2022-05-24 21:36:22 GMT 49.201244 18.051838 36,000 288 400 0
2022-05-24 21:36:18 GMT 49.198406 18.065788 36,000 288 400 0
2022-05-24 21:36:14 GMT 49.196503 18.075115 36,000 288 400 0
2022-05-24 21:36:11 GMT 49.194729 18.084002 36,000 288 400 0
2022-05-24 21:36:08 GMT 49.193565 18.089712 36,000 288 400 0
2022-05-24 21:36:05 GMT 49.191563 18.099686 36,000 288 400 0
2022-05-24 21:36:02 GMT 49.189842 18.108070 36,000 288 401 0
2022-05-24 21:35:58 GMT 49.188259 18.115950 36,000 288 400 0
2022-05-24 21:35:55 GMT 49.186256 18.125923 36,000 288 400 0
2022-05-24 21:35:52 GMT 49.184628 18.133945 36,000 288 401 0
2022-05-24 21:35:49 GMT 49.182724 18.143288 36,000 288 401 0
2022-05-24 21:35:45 GMT 49.180622 18.153751 36,000 288 402 0
2022-05-24 21:35:42 GMT 49.179276 18.160473 36,000 288 402 0
2022-05-24 21:35:39 GMT 49.177692 18.168205 36,000 288 402 0
2022-05-24 21:35:36 GMT 49.175949 18.176880 36,000 288 402 0
2022-05-24 21:35:33 GMT 49.174484 18.183922 36,000 288 402 0
2022-05-24 21:35:30 GMT 49.172104 18.195818 36,000 288 402 0
2022-05-24 21:35:27 GMT 49.170753 18.202394 36,000 288 402 0
2022-05-24 21:35:24 GMT 49.169586 18.208149 36,000 288 403 0
2022-05-24 21:35:21 GMT 49.167587 18.217861 36,000 288 403 0
2022-05-24 21:35:18 GMT 49.165970 18.225824 36,000 288 403 0
2022-05-24 21:35:15 GMT 49.164368 18.233784 36,000 288 403 0
2022-05-24 21:35:12 GMT 49.162354 18.243572 36,000 288 403 0
2022-05-24 21:35:09 GMT 49.159119 18.259277 36,000 288 402 0
2022-05-24 21:35:06 GMT 49.157822 18.265615 36,000 288 402 0
2022-05-24 21:35:03 GMT 49.157822 18.265615 36,000 288 402 0
2022-05-24 21:35:00 GMT 49.156136 18.273951 36,000 288 402 0
2022-05-24 21:34:57 GMT 49.154205 18.283293 36,000 288 401 0
2022-05-24 21:34:54 GMT 49.152786 18.290335 36,000 288 400 0
2022-05-24 21:34:51 GMT 49.150681 18.300547 36,000 288 400 0
2022-05-24 21:34:48 GMT 49.149033 18.308716 36,000 288 400 0
2022-05-24 21:34:45 GMT 49.146194 18.322660 36,000 288 398 0
2022-05-24 21:34:42 GMT 49.146194 18.322660 36,000 288 398 0
2022-05-24 21:34:39 GMT 49.144592 18.330473 36,000 288 398 0
2022-05-24 21:34:36 GMT 49.142590 18.340229 36,000 288 397 0
2022-05-24 21:34:33 GMT 49.141068 18.347731 36,000 288 397 0
2022-05-24 21:34:30 GMT 49.137562 18.364948 36,000 288 397 0
2022-05-24 21:34:26 GMT 49.137562 18.364948 36,000 288 398 0
2022-05-24 21:34:23 GMT 49.135391 18.375690 36,000 288 398 0
2022-05-24 21:34:20 GMT 49.134212 18.381283 36,000 288 398 0
2022-05-24 21:34:16 GMT 49.132210 18.391258 36,000 288 398 0
2022-05-24 21:34:13 GMT 49.130219 18.400831 36,000 288 398 0
2022-05-24 21:34:10 GMT 49.128616 18.408720 36,000 288 398 0
2022-05-24 21:34:06 GMT 49.124390 18.429276 36,000 288 399 0
2022-05-24 21:34:03 GMT 49.124390 18.429276 36,000 288 399 0
2022-05-24 21:34:00 GMT 49.122849 18.436607 36,000 288 399 0
2022-05-24 21:33:57 GMT 49.121132 18.444962 36,000 288 399 0
2022-05-24 21:33:54 GMT 49.119415 18.453369 36,000 288 399 0
2022-05-24 21:33:50 GMT 49.117222 18.463970 36,000 288 398 0
2022-05-24 21:33:47 GMT 49.116074 18.469637 36,000 288 398 0
2022-05-24 21:33:44 GMT 49.113869 18.480232 36,000 288 398 0
2022-05-24 21:33:41 GMT 49.112778 18.485624 36,000 288 398 0
2022-05-24 21:33:38 GMT 49.110794 18.495268 36,000 288 398 0
2022-05-24 21:33:35 GMT 49.109390 18.501963 36,000 288 398 0
2022-05-24 21:33:32 GMT 49.107330 18.512033 36,000 288 398 0
2022-05-24 21:33:29 GMT 49.106232 18.517244 36,000 288 397 0
2022-05-24 21:33:26 GMT 49.104218 18.527103 36,000 288 397 0
2022-05-24 21:33:22 GMT 49.101952 18.537983 36,000 288 397 0
2022-05-24 21:33:19 GMT 49.100460 18.545282 36,000 288 397 0
2022-05-24 21:33:15 GMT 49.098225 18.555981 36,000 288 397 0
2022-05-24 21:33:12 GMT 49.094875 18.572388 36,000 288 397 0
2022-05-24 21:33:09 GMT 49.093506 18.578938 36,000 288 396 0
2022-05-24 21:33:06 GMT 49.093506 18.578938 36,000 288 396 0
2022-05-24 21:33:03 GMT 49.091766 18.587318 36,000 288 396 0
2022-05-24 21:33:00 GMT 49.090034 18.595661 36,000 288 396 0
2022-05-24 21:32:57 GMT 49.088104 18.605064 36,000 288 395 0
2022-05-24 21:32:54 GMT 49.086727 18.611708 36,000 288 395 0
2022-05-24 21:32:51 GMT 49.085377 18.618357 36,000 288 395 0
2022-05-24 21:32:48 GMT 49.083656 18.626524 36,000 288 395 0
2022-05-24 21:32:45 GMT 49.081841 18.635342 36,000 288 395 0
2022-05-24 21:32:41 GMT 49.079468 18.646908 36,000 288 395 64
2022-05-24 21:32:38 GMT 49.077988 18.653940 36,000 288 395 64
2022-05-24 21:32:34 GMT 49.075836 18.664223 36,000 288 396 64
2022-05-24 21:32:31 GMT 49.073879 18.673794 36,000 288 396 64
2022-05-24 21:32:28 GMT 49.072205 18.681816 36,000 288 396 64
2022-05-24 21:32:24 GMT 49.070297 18.690771 35,250 288 401 1152
2022-05-24 21:32:20 GMT 49.068192 18.700844 35,975 288 398 64
2022-05-24 21:32:17 GMT 49.066269 18.710138 35,975 288 399 128
2022-05-24 21:32:14 GMT 49.064850 18.716829 35,975 288 399 64
2022-05-24 21:32:11 GMT 49.062424 18.728451 35,975 288 400 128
2022-05-24 21:32:08 GMT 49.061077 18.734797 35,950 288 400 320
2022-05-24 21:32:05 GMT 49.059681 18.741447 35,950 288 400 448
2022-05-24 21:32:02 GMT 49.056061 18.758944 35,925 288 399 768
2022-05-24 21:31:59 GMT 49.056061 18.758944 35,875 288 399 896
2022-05-24 21:31:55 GMT 49.054367 18.767042 35,800 288 399 1216
2022-05-24 21:31:52 GMT 49.052124 18.777819 35,725 288 400 1280
2022-05-24 21:31:49 GMT 49.050156 18.787254 35,675 288 400 1280
2022-05-24 21:31:46 GMT 49.048695 18.794210 35,600 288 401 1280
2022-05-24 21:31:43 GMT 49.047485 18.799849 35,475 288 401 1216
2022-05-24 21:31:40 GMT 49.044983 18.811764 35,475 288 401 1216
2022-05-24 21:31:37 GMT 49.043655 18.818102 35,450 288 401 1152
2022-05-24 21:31:33 GMT 49.041412 18.828594 35,350 288 401 1216
2022-05-24 21:31:30 GMT 49.039902 18.835848 35,300 288 401 1216
2022-05-24 21:31:27 GMT 49.037979 18.844933 35,225 288 402 1280
2022-05-24 21:31:24 GMT 49.036499 18.851961 35,100 288 402 1344
2022-05-24 21:31:21 GMT 49.034866 18.859793 34,925 288 403 1152
2022-05-24 21:31:18 GMT 49.033493 18.866272 35,075 288 402 1344
2022-05-24 21:31:15 GMT 49.031425 18.875885 34,975 288 403 1344
2022-05-24 21:31:12 GMT 49.029556 18.884865 34,875 288 403 1280
2022-05-24 21:31:09 GMT 49.027634 18.894018 34,800 288 403 1216
2022-05-24 21:31:06 GMT 49.026443 18.899591 34,750 288 403 1216
2022-05-24 21:31:03 GMT 49.024429 18.909161 34,725 288 403 1216
2022-05-24 21:30:59 GMT 49.022346 18.919035 34,625 288 403 1152
2022-05-24 21:30:56 GMT 49.020065 18.929806 34,575 288 403 1152
2022-05-24 21:30:52 GMT 49.017876 18.940212 34,500 288 403 1152
2022-05-24 21:30:49 GMT 49.014725 18.955149 34,425 288 403 1216
2022-05-24 21:30:46 GMT 49.014725 18.955149 34,375 288 403 1152
2022-05-24 21:30:43 GMT 49.012848 18.964163 34,325 288 403 1216
2022-05-24 21:30:40 GMT 49.011566 18.970221 34,275 288 403 1344
2022-05-24 21:30:37 GMT 49.009171 18.981413 34,175 288 403 1472
2022-05-24 21:30:34 GMT 49.007675 18.988602 34,075 288 403 1664
2022-05-24 21:30:31 GMT 49.006531 18.994022 34,025 288 404 1792
2022-05-24 21:30:28 GMT 49.004791 19.002333 33,425 288 408 1920
2022-05-24 21:30:25 GMT 49.002888 19.011190 33,875 288 405 1984
2022-05-24 21:30:22 GMT 49.001770 19.016560 33,800 288 405 2048
2022-05-24 21:30:19 GMT 48.999115 19.029165 33,625 288 407 2048
2022-05-24 21:30:16 GMT 48.997467 19.036842 33,450 288 409 1920
2022-05-24 21:30:13 GMT 48.995903 19.044222 33,400 288 409 1920
2022-05-24 21:30:10 GMT 48.993904 19.053690 33,175 288 411 1664
2022-05-24 21:30:07 GMT 48.992477 19.060364 33,275 288 410 1792
2022-05-24 21:30:04 GMT 48.991104 19.066772 33,200 288 410 1728
2022-05-24 21:30:01 GMT 48.988827 19.077471 33,100 288 412 1728
2022-05-24 21:29:57 GMT 48.986160 19.089943 32,950 288 412 1728
2022-05-24 21:29:54 GMT 48.985062 19.095224 32,900 288 413 1728
2022-05-24 21:29:51 GMT 48.983055 19.104647 32,750 288 413 1536
2022-05-24 21:29:48 GMT 48.981262 19.112970 32,725 288 413 1600
2022-05-24 21:29:44 GMT 48.979111 19.123041 32,650 288 414 1472
2022-05-24 21:29:41 GMT 48.976959 19.133196 32,550 288 414 1408
2022-05-24 21:29:38 GMT 48.975513 19.139992 32,500 288 414 1344
2022-05-24 21:29:34 GMT 48.973206 19.150860 32,400 288 414 1280
2022-05-24 21:29:31 GMT 48.971466 19.158958 32,325 288 414 1280
2022-05-24 21:29:27 GMT 48.969372 19.168756 32,275 288 414 1344
2022-05-24 21:29:24 GMT 48.967319 19.178370 32,150 288 413 1344
2022-05-24 21:29:21 GMT 48.965515 19.186777 32,100 288 413 1408
2022-05-24 21:29:18 GMT 48.963684 19.195580 32,050 288 413 1344
2022-05-24 21:29:14 GMT 48.961178 19.207281 31,925 288 413 1280
2022-05-24 21:29:11 GMT 48.959641 19.214655 31,825 288 413 1344
2022-05-24 21:29:07 GMT 48.957138 19.226357 31,800 288 413 1344
2022-05-24 21:29:04 GMT 48.955963 19.232000 31,750 288 413 1216
2022-05-24 21:29:01 GMT 48.953819 19.242048 31,575 288 413 1088
2022-05-24 21:28:57 GMT 48.951401 19.253468 31,600 288 413 1088
2022-05-24 21:28:54 GMT 48.949585 19.262133 31,450 289 413 960
2022-05-24 21:28:51 GMT 48.948326 19.268068 31,425 289 412 960
2022-05-24 21:28:48 GMT 48.946243 19.277697 31,425 289 412 960
2022-05-24 21:28:45 GMT 48.944466 19.285994 31,400 289 412 896
2022-05-24 21:28:41 GMT 48.940521 19.304386 31,350 288 411 832
2022-05-24 21:28:38 GMT 48.938133 19.315626 31,250 289 410 576
2022-05-24 21:28:35 GMT 48.938133 19.315626 31,275 289 410 512
2022-05-24 21:28:31 GMT 48.936172 19.324810 31,250 289 408 384
2022-05-24 21:28:28 GMT 48.934361 19.333118 31,200 289 406 384
2022-05-24 21:28:25 GMT 48.930870 19.349380 31,200 289 405 384
2022-05-24 21:28:22 GMT 48.930870 19.349380 31,125 289 402 576
2022-05-24 21:28:19 GMT 48.929008 19.358055 31,150 289 402 576
2022-05-24 21:28:16 GMT 48.927238 19.366222 31,125 289 402 576
2022-05-24 21:28:12 GMT 48.924591 19.378546 31,075 289 400 576
2022-05-24 21:28:09 GMT 48.923935 19.381544 31,000 289 397 576
2022-05-24 21:28:06 GMT 48.921841 19.391157 31,025 289 398 576
2022-05-24 21:28:03 GMT 48.920258 19.398676 31,025 289 398 576
2022-05-24 21:28:00 GMT 48.917976 19.409157 30,975 289 396 576
2022-05-24 21:27:57 GMT 48.914810 19.423683 30,925 289 395 576
2022-05-24 21:27:54 GMT 48.914810 19.423683 30,925 289 394 576
2022-05-24 21:27:50 GMT 48.912552 19.434181 30,800 289 390 640
2022-05-24 21:27:47 GMT 48.909119 19.449884 30,825 289 391 640
2022-05-24 21:27:44 GMT 48.909119 19.449884 30,800 289 390 640
2022-05-24 21:27:40 GMT 48.906990 19.459606 30,750 289 389 576
2022-05-24 21:27:37 GMT 48.905090 19.468407 30,750 289 388 576
2022-05-24 21:27:34 GMT 48.901402 19.485121 30,650 289 385 576
2022-05-24 21:27:30 GMT 48.899403 19.494301 30,650 289 384 576
2022-05-24 21:27:27 GMT 48.899403 19.494301 30,650 289 383 576
2022-05-24 21:27:24 GMT 48.897724 19.501888 30,425 289 379 640
2022-05-24 21:27:19 GMT 48.895020 19.514395 30,550 289 380 640
2022-05-24 21:27:16 GMT 48.892868 19.524115 30,525 289 380 640
2022-05-24 21:27:12 GMT 48.891068 19.532246 30,450 289 378 640
2022-05-24 21:27:09 GMT 48.889347 19.540125 30,250 289 377 640
2022-05-24 21:27:06 GMT 48.887650 19.547916 30,425 289 376 640
2022-05-24 21:27:03 GMT 48.886227 19.554291 30,375 289 374 640
2022-05-24 21:27:00 GMT 48.884583 19.561861 30,350 289 374 640
2022-05-24 21:26:57 GMT 48.882595 19.570843 30,325 289 371 640
2022-05-24 21:26:54 GMT 48.881432 19.576118 30,225 289 369 640
2022-05-24 21:26:51 GMT 48.879337 19.585732 30,250 289 369 640
2022-05-24 21:26:48 GMT 48.877800 19.592815 30,225 289 367 640
2022-05-24 21:26:45 GMT 48.876663 19.597990 30,200 289 365 640
2022-05-24 21:26:42 GMT 48.875336 19.604017 30,150 289 365 640
2022-05-24 21:26:39 GMT 48.872959 19.614931 30,125 289 364 640
2022-05-24 21:26:36 GMT 48.869934 19.628695 30,100 289 362 640
2022-05-24 21:26:33 GMT 48.868164 19.636906 29,900 289 357 768
2022-05-24 21:26:30 GMT 48.868164 19.636906 30,050 289 360 640
2022-05-24 21:26:27 GMT 48.866867 19.642780 30,000 289 359 704
2022-05-24 21:26:24 GMT 48.865559 19.648830 29,975 289 357 704
2022-05-24 21:26:21 GMT 48.863976 19.656059 29,950 289 356 768
2022-05-24 21:26:18 GMT 48.862438 19.663071 29,900 289 354 768
2022-05-24 21:26:15 GMT 48.859085 19.678556 29,850 289 353 832
2022-05-24 21:26:12 GMT 48.859085 19.678556 29,825 289 352 896
2022-05-24 21:26:09 GMT 48.857784 19.684464 29,750 289 351 1024
2022-05-24 21:26:06 GMT 48.856247 19.691692 29,725 289 350 1152
2022-05-24 21:26:03 GMT 48.853920 19.702389 29,650 289 349 1344
2022-05-24 21:26:00 GMT 48.852905 19.707008 29,575 289 349 1344
2022-05-24 21:25:57 GMT 48.851639 19.712870 29,500 289 348 1280
2022-05-24 21:25:54 GMT 48.850342 19.718840 29,450 289 348 1344
2022-05-24 21:25:51 GMT 48.848511 19.727221 29,150 289 346 1408
2022-05-24 21:25:48 GMT 48.847076 19.733904 29,325 289 347 1472
2022-05-24 21:25:45 GMT 48.845261 19.742287 29,225 289 346 1408
2022-05-24 21:25:42 GMT 48.844025 19.747995 29,175 289 349 1984
2022-05-24 21:25:39 GMT 48.842194 19.756235 29,125 289 345 1536
2022-05-24 21:25:35 GMT 48.840408 19.764616 28,950 289 345 2176
2022-05-24 21:25:32 GMT 48.839256 19.769825 28,875 289 346 2496
2022-05-24 21:25:29 GMT 48.837799 19.776447 28,700 289 347 2560
2022-05-24 21:25:26 GMT 48.833496 19.796165 28,625 289 389 2752
2022-05-24 21:25:22 GMT 48.833496 19.796165 28,450 289 349 1984
2022-05-24 21:25:19 GMT 48.832489 19.800955 28,350 289 349 2048
2022-05-24 21:25:16 GMT 48.830551 19.809650 28,250 289 350 2176
2022-05-24 21:25:12 GMT 48.827866 19.822012 28,075 289 351 2240
2022-05-24 21:25:09 GMT 48.827061 19.825480 27,950 289 351 2368
2022-05-24 21:25:06 GMT 48.825989 19.830467 27,850 289 351 2688
2022-05-24 21:25:03 GMT 48.824524 19.836943 27,675 289 352 2688
2022-05-24 21:24:59 GMT 48.821915 19.848633 27,525 289 354 2944
2022-05-24 21:24:56 GMT 48.820633 19.854338 26,900 289 356 2944
2022-05-24 21:24:53 GMT 48.819424 19.859812 27,200 289 358 3264
2022-05-24 21:24:50 GMT 48.817474 19.868633 27,000 289 360 3648
2022-05-24 21:24:47 GMT 48.815735 19.876310 26,900 289 362 3904
2022-05-24 21:24:44 GMT 48.813995 19.884197 26,500 289 369 4288
2022-05-24 21:24:39 GMT 48.811752 19.894339 26,300 289 369 4288
2022-05-24 21:24:36 GMT 48.809921 19.902649 25,775 289 379 4160
2022-05-24 21:24:32 GMT 48.807835 19.912142 25,975 289 377 4352
2022-05-24 21:24:29 GMT 48.806065 19.920164 25,550 289 380 4032
2022-05-24 21:24:26 GMT 48.804749 19.926029 23,525 289 389 2752
2022-05-24 21:24:23 GMT 48.802525 19.936138 25,300 289 387 3392
2022-05-24 21:24:18 GMT 48.799500 19.949726 25,025 289 391 2496
2022-05-24 21:24:15 GMT 48.798058 19.956230 24,950 289 392 1984
2022-05-24 21:24:12 GMT 48.796600 19.962791 24,875 289 392 1536
2022-05-24 21:24:09 GMT 48.792389 19.981876 24,725 289 389 1280
2022-05-24 21:24:06 GMT 48.792389 19.981876 24,725 289 389 1280
2022-05-24 21:24:03 GMT 48.790970 19.988285 24,675 289 389 1536
2022-05-24 21:23:59 GMT 48.789230 19.996033 24,550 289 388 1728
2022-05-24 21:23:56 GMT 48.787720 20.002865 24,500 289 388 1920
2022-05-24 21:23:53 GMT 48.785164 20.014416 24,300 289 388 1984
2022-05-24 21:23:48 GMT 48.782913 20.024485 24,200 289 388 1728
2022-05-24 21:23:45 GMT 48.780972 20.033279 23,525 289 389 2752
2022-05-24 21:23:42 GMT 48.779526 20.039766 24,075 289 388 1856
2022-05-24 21:23:39 GMT 48.777203 20.050121 23,900 289 388 2112
2022-05-24 21:23:36 GMT 48.776039 20.055325 23,850 289 388 2368
2022-05-24 21:23:32 GMT 48.773575 20.066458 23,625 289 388 2624
2022-05-24 21:23:28 GMT 48.771381 20.076286 23,425 289 390 2752
2022-05-24 21:23:25 GMT 48.768963 20.087200 23,325 289 390 2688
2022-05-24 21:23:22 GMT 48.767761 20.092516 23,150 289 391 2752
2022-05-24 21:23:18 GMT 48.764866 20.105343 22,975 289 393 2624
2022-05-24 21:23:15 GMT 48.763641 20.110968 22,725 289 390 1472
2022-05-24 21:23:12 GMT 48.761467 20.120592 22,650 289 394 2112
2022-05-24 21:23:07 GMT 48.759293 20.130335 22,600 289 393 1728
2022-05-24 21:23:04 GMT 48.757137 20.139891 22,550 289 390 1472
2022-05-24 21:23:01 GMT 48.755787 20.145962 22,350 289 389 1408
2022-05-24 21:22:56 GMT 48.751328 20.165970 22,300 289 390 1536
2022-05-24 21:22:50 GMT 48.748718 20.177519 22,125 289 387 1344
2022-05-24 21:22:47 GMT 48.747620 20.182589 21,950 289 384 1216
2022-05-24 21:22:44 GMT 48.745789 20.190687 22,075 289 386 1344
2022-05-24 21:22:41 GMT 48.743912 20.199209 22,000 289 385 1280
2022-05-24 21:22:37 GMT 48.741943 20.207941 21,875 289 382 1344
2022-05-24 21:22:34 GMT 48.739681 20.218096 21,825 289 382 1792
2022-05-24 21:22:30 GMT 48.737492 20.227854 21,600 289 381 2048
2022-05-24 21:22:27 GMT 48.736084 20.234352 21,575 289 381 1984
2022-05-24 21:22:24 GMT 48.734207 20.242731 21,475 289 380 1856
2022-05-24 21:22:21 GMT 48.732327 20.251127 21,400 289 380 1792
2022-05-24 21:22:17 GMT 48.730324 20.259947 21,275 289 378 1856
2022-05-24 21:22:14 GMT 48.728928 20.266161 21,200 289 377 1728
2022-05-24 21:22:11 GMT 48.726646 20.276354 21,100 289 376 1664
2022-05-24 21:22:08 GMT 48.725250 20.282640 21,050 289 376 1600
2022-05-24 21:22:04 GMT 48.723526 20.290302 20,925 289 375 1600
2022-05-24 21:22:01 GMT 48.721527 20.299192 20,850 289 372 1536
2022-05-24 21:21:58 GMT 48.719479 20.308372 20,775 289 372 1536
2022-05-24 21:21:54 GMT 48.717819 20.315693 20,625 289 369 1536
2022-05-24 21:21:50 GMT 48.715660 20.325357 20,600 289 368 1536
2022-05-24 21:21:47 GMT 48.712372 20.339918 20,425 289 367 2176
2022-05-24 21:21:44 GMT 48.712372 20.339918 20,300 289 367 2304
2022-05-24 21:21:41 GMT 48.710445 20.348413 20,200 289 367 2176
2022-05-24 21:21:38 GMT 48.709095 20.354342 20,050 289 366 2240
2022-05-24 21:21:35 GMT 48.706970 20.363792 19,925 289 366 2240
2022-05-24 21:21:32 GMT 48.705093 20.372103 19,875 289 365 2176
2022-05-24 21:21:29 GMT 48.703648 20.378628 19,800 289 366 2240
2022-05-24 21:21:25 GMT 48.701321 20.388819 19,575 289 365 2304
2022-05-24 21:21:22 GMT 48.700207 20.393805 19,500 289 365 2112
2022-05-24 21:21:19 GMT 48.698574 20.401106 19,450 289 365 2112
2022-05-24 21:21:15 GMT 48.695923 20.412888 19,275 289 364 1984
2022-05-24 21:21:12 GMT 48.695114 20.416471 19,225 289 363 1984
2022-05-24 21:21:09 GMT 48.693081 20.425680 18,975 289 362 2048
2022-05-24 21:21:06 GMT 48.691910 20.430696 18,850 289 361 2048
2022-05-24 21:21:03 GMT 48.689896 20.439642 18,850 289 360 2112
2022-05-24 21:21:00 GMT 48.688335 20.446642 18,800 289 360 2112
2022-05-24 21:20:56 GMT 48.686279 20.455769 18,675 289 359 2112
2022-05-24 21:20:52 GMT 48.683762 20.466967 18,500 289 357 2176
2022-05-24 21:20:49 GMT 48.682068 20.474571 18,350 289 357 2304
2022-05-24 21:20:46 GMT 48.680740 20.480347 18,275 289 357 2368
2022-05-24 21:20:42 GMT 48.678371 20.490875 17,025 289 356 2368
2022-05-24 21:20:38 GMT 48.676666 20.498304 17,975 289 356 2304
2022-05-24 21:20:34 GMT 48.674088 20.509596 17,775 290 354 2176
2022-05-24 21:20:31 GMT 48.672737 20.515522 17,700 290 354 2112
2022-05-24 21:20:28 GMT 48.671402 20.521475 17,625 290 353 2048
2022-05-24 21:20:25 GMT 48.669159 20.531054 17,475 290 352 2048
2022-05-24 21:20:22 GMT 48.667877 20.536615 17,400 290 352 2176
2022-05-24 21:20:18 GMT 48.665710 20.545879 17,250 290 350 2304
2022-05-24 21:20:15 GMT 48.664078 20.552814 17,125 290 349 2368
2022-05-24 21:20:12 GMT 48.662796 20.558167 16,975 290 348 2560
2022-05-24 21:20:09 GMT 48.661053 20.565468 16,825 290 347 2752
2022-05-24 21:20:05 GMT 48.658539 20.575802 16,675 291 348 2816
2022-05-24 21:20:01 GMT 48.656307 20.585127 16,450 290 347 2752
2022-05-24 21:19:58 GMT 48.654678 20.591848 16,350 290 347 2560
2022-05-24 21:19:54 GMT 48.652908 20.599436 16,225 288 347 2240
2022-05-24 21:19:51 GMT 48.651672 20.605492 16,125 286 346 2176
2022-05-24 21:19:48 GMT 48.650253 20.613386 16,000 285 344 2176
2022-05-24 21:19:45 GMT 48.648998 20.621698 15,750 278 339 2560
2022-05-24 21:19:41 GMT 48.647644 20.632816 15,725 279 341 2240
2022-05-24 21:19:38 GMT 48.647049 20.638733 15,450 278 337 2752
2022-05-24 21:19:33 GMT 48.645969 20.651623 15,375 278 338 2624
2022-05-24 21:19:30 GMT 48.645458 20.657261 15,375 278 338 2624
2022-05-24 21:19:25 GMT 48.644623 20.667185 14,825 278 337 2944
2022-05-24 21:19:22 GMT 48.643982 20.674580 14,850 278 337 3008
2022-05-24 21:19:18 GMT 48.643177 20.683931 14,475 278 337 3264
2022-05-24 21:19:15 GMT 48.642563 20.691341 14,575 278 337 3136
2022-05-24 21:19:10 GMT 48.641644 20.702290 14,325 278 337 3264
2022-05-24 21:19:07 GMT 48.640896 20.710892 14,125 278 338 3392
2022-05-24 21:19:03 GMT 48.640228 20.719019 13,350 278 338 3392
2022-05-24 21:19:00 GMT 48.639641 20.726068 13,800 278 338 2816
2022-05-24 21:18:56 GMT 48.638847 20.735249 13,600 278 338 2752
2022-05-24 21:18:53 GMT 48.638123 20.743526 13,450 278 338 2688
2022-05-24 21:18:48 GMT 48.636475 20.763147 12,900 278 335 2624
2022-05-24 21:18:44 GMT 48.636475 20.763147 13,100 278 335 2688
2022-05-24 21:18:41 GMT 48.635605 20.773457 12,650 278 333 2688
2022-05-24 21:18:35 GMT 48.634613 20.785192 12,650 278 332 2816
2022-05-24 21:18:28 GMT 48.632984 20.804058 12,250 278 330 3072
2022-05-24 21:18:25 GMT 48.631531 20.820993 12,150 278 330 3136
2022-05-24 21:18:19 GMT 48.631531 20.820993 11,875 278 330 3072
2022-05-24 21:18:15 GMT 48.630749 20.829933 11,675 278 330 2880
2022-05-24 21:18:10 GMT 48.629654 20.842403 11,425 278 328 2688
2022-05-24 21:18:07 GMT 48.629025 20.849737 11,175 278 326 2176
2022-05-24 21:18:04 GMT 48.628418 20.856840 11,175 278 326 2176
2022-05-24 21:17:56 GMT 48.627071 20.872650 10,950 278 320 1600
2022-05-24 21:17:49 GMT 48.625767 20.887974 10,800 278 312 1152
2022-05-24 21:17:46 GMT 48.625114 20.895418 10,725 278 309 1152
2022-05-24 21:17:37 GMT 48.623299 20.916813 10,525 278 296 1216
2022-05-24 21:17:29 GMT 48.622135 20.930616 10,375 278 287 1344
2022-05-24 21:17:25 GMT 48.621532 20.937773 10,275 278 282 1920
2022-05-24 21:17:18 GMT 48.620407 20.951139 10,000 278 278 2880
2022-05-24 21:17:15 GMT 48.619808 20.957867 9,800 278 277 3200
2022-05-24 21:17:06 GMT 48.618275 20.975212 9,275 278 277 3648
2022-05-24 21:16:56 GMT 48.616596 20.994656 8,675 278 279 3456

Making use of Plane Finder data

You are free to use the raw flight data, aircraft information and images provided in this report for your own purposes provided the data is correctly attributed to Plane Finder. We ask that you please credit Plane Finder and link to planefinder.net in close proximity to the content.

Optionally one of the following logos (no smaller then 150x24px) can be used and must link to planefinder.net

Embedding the Plane Finder map

You are welcome to embed the Plane Finder playback map on your website to offer visitors a more interactive experience. We suggest using the following HTML code:

<iframe src="//planefinder.net/data/report/W95114-G-WUKN-7700-squawk-2022-05-24/map" width="800" height="600" seamless="seamless"></iframe>

Where our data comes from

Plane Finder has a global network of data feeds and antenna radars that receive data broadcast directly from aircraft. The primary technologies used are ADS-B and MLAT. We also show feeds from the FAA and a FLARM glider feed.

Click here to find out more about the Plane Finder network.

How we collect our data